<?xml version="1.0" encoding="UTF-8" standalone="no" ?>
<gpx xmlns="http://www.topografix.com/GPX/1/1" xmlns:xsi="http://www.w3.org/2001/XMLSchema-instance" xsi:schemaLocation="http://www.topografix.com/GPX/1/1 http://www.topografix.com/GPX/1/1/gpx.xsd" version="1.1" creator="VisuGPX - https://www.visugpx.com">
  <metadata>
    <name>Lauroux - corniches cirque de Labeil</name>
    <desc><![CDATA[2016-01 - Lauroux - corniches cirque de Labeil

[b]album[/b] : [url]https://goo.gl/photos/KNp8Dy92WJ9NYPU99[/url]
[img]https://3.bp.blogspot.com/-Uc7gm9Gx6TQ/WNFB37iHS6I/AAAAAAAAQ7w/SYAAQ8xozyE4HyHHEnFqbTv4WcUc-wtIACLcB/s1600/2016-01_Lauroux-Labeil_i.JPG[/img]
[b]Idées de randonnées dans la même région[/b]
Parcours : [url]https://www.visugpx.com/membres/24856/causses/larzac/[/url]
Photos : [url]https://jcvertygo.blogspot.com/p/larzac.html[/url]]]></desc>
  </metadata>
  <trk>
    <name><![CDATA[Lauroux - corniches cirque de Labeil_1]]></name>
    <trkseg>
      <trkpt lat="43.7766" lon="3.29126">
        <ele>-34.7</ele>
        <time>2016-01-30T09:56:30Z</time>
      </trkpt>
      <trkpt lat="43.77582" lon="3.29097">
        <ele>268.27587863103</ele>
        <time>2016-01-30T09:57:00Z</time>
      </trkpt>
      <trkpt lat="43.77597" lon="3.29053">
        <ele>308.46908673922</ele>
        <time>2016-01-30T09:57:55Z</time>
      </trkpt>
      <trkpt lat="43.77618" lon="3.2906">
        <ele>301.84763758176</ele>
        <time>2016-01-30T09:58:02Z</time>
      </trkpt>
      <trkpt lat="43.77651" lon="3.29094">
        <ele>308.10488286028</ele>
        <time>2016-01-30T09:59:40Z</time>
      </trkpt>
      <trkpt lat="43.7769" lon="3.29094">
        <ele>311.62238527957</ele>
        <time>2016-01-30T10:00:10Z</time>
      </trkpt>
      <trkpt lat="43.7769" lon="3.29093">
        <ele>311.62238527957</ele>
        <time>2016-01-30T10:00:10Z</time>
      </trkpt>
      <trkpt lat="43.77691" lon="3.29083">
        <ele>311.62238527957</ele>
        <time>2016-01-30T10:00:18Z</time>
      </trkpt>
      <trkpt lat="43.77695" lon="3.29068">
        <ele>314.34785436834</ele>
        <time>2016-01-30T10:00:25Z</time>
      </trkpt>
      <trkpt lat="43.77703" lon="3.29024">
        <ele>316.61971389178</ele>
        <time>2016-01-30T10:00:47Z</time>
      </trkpt>
      <trkpt lat="43.77704" lon="3.29022">
        <ele>316.61971389178</ele>
        <time>2016-01-30T10:00:48Z</time>
      </trkpt>
      <trkpt lat="43.77736" lon="3.28929">
        <ele>318.47917185094</ele>
        <time>2016-01-30T10:02:04Z</time>
      </trkpt>
      <trkpt lat="43.77735" lon="3.28921">
        <ele>318.47917185094</ele>
        <time>2016-01-30T10:02:05Z</time>
      </trkpt>
      <trkpt lat="43.77748" lon="3.28949">
        <ele>319.08600881365</ele>
        <time>2016-01-30T10:03:26Z</time>
      </trkpt>
      <trkpt lat="43.77763" lon="3.28955">
        <ele>319.0825933244</ele>
        <time>2016-01-30T10:03:44Z</time>
      </trkpt>
      <trkpt lat="43.77815" lon="3.28922">
        <ele>318.47622491297</ele>
        <time>2016-01-30T10:04:26Z</time>
      </trkpt>
      <trkpt lat="43.77832" lon="3.28914">
        <ele>318.13788321757</ele>
        <time>2016-01-30T10:04:52Z</time>
      </trkpt>
      <trkpt lat="43.77866" lon="3.28868">
        <ele>317.55110091821</ele>
        <time>2016-01-30T10:05:33Z</time>
      </trkpt>
      <trkpt lat="43.77905" lon="3.2884">
        <ele>316.67881087243</ele>
        <time>2016-01-30T10:05:52Z</time>
      </trkpt>
      <trkpt lat="43.77924" lon="3.28828">
        <ele>315.20938661128</ele>
        <time>2016-01-30T10:06:17Z</time>
      </trkpt>
      <trkpt lat="43.77936" lon="3.28823">
        <ele>313.87564190422</ele>
        <time>2016-01-30T10:06:17Z</time>
      </trkpt>
      <trkpt lat="43.77984" lon="3.2881">
        <ele>312.77432996622</ele>
        <time>2016-01-30T10:07:00Z</time>
      </trkpt>
      <trkpt lat="43.77985" lon="3.2881">
        <ele>312.77432996622</ele>
        <time>2016-01-30T10:07:08Z</time>
      </trkpt>
      <trkpt lat="43.78007" lon="3.28797">
        <ele>311.92104926743</ele>
        <time>2016-01-30T10:07:17Z</time>
      </trkpt>
      <trkpt lat="43.78048" lon="3.28817">
        <ele>311.40438081258</ele>
        <time>2016-01-30T10:08:25Z</time>
      </trkpt>
      <trkpt lat="43.78054" lon="3.28819">
        <ele>311.40438081258</ele>
        <time>2016-01-30T10:08:40Z</time>
      </trkpt>
      <trkpt lat="43.78158" lon="3.28841">
        <ele>313.16441643911</ele>
        <time>2016-01-30T10:10:47Z</time>
      </trkpt>
      <trkpt lat="43.78174" lon="3.28824">
        <ele>315.07664258487</ele>
        <time>2016-01-30T10:11:22Z</time>
      </trkpt>
      <trkpt lat="43.7818" lon="3.28816">
        <ele>315.07664258487</ele>
        <time>2016-01-30T10:11:22Z</time>
      </trkpt>
      <trkpt lat="43.78203" lon="3.28786">
        <ele>316.85721020639</ele>
        <time>2016-01-30T10:11:55Z</time>
      </trkpt>
      <trkpt lat="43.7824" lon="3.28739">
        <ele>318.99541028273</ele>
        <time>2016-01-30T10:13:02Z</time>
      </trkpt>
      <trkpt lat="43.78277" lon="3.28712">
        <ele>321.59475602946</ele>
        <time>2016-01-30T10:13:52Z</time>
      </trkpt>
      <trkpt lat="43.78282" lon="3.28707">
        <ele>321.59475602946</ele>
        <time>2016-01-30T10:13:58Z</time>
      </trkpt>
      <trkpt lat="43.78284" lon="3.28706">
        <ele>321.59475602946</ele>
        <time>2016-01-30T10:14:28Z</time>
      </trkpt>
      <trkpt lat="43.78297" lon="3.28696">
        <ele>324.55792937557</ele>
        <time>2016-01-30T10:14:31Z</time>
      </trkpt>
      <trkpt lat="43.78376" lon="3.28663">
        <ele>329.48532650491</ele>
        <time>2016-01-30T10:15:47Z</time>
      </trkpt>
      <trkpt lat="43.78419" lon="3.28685">
        <ele>333.6976471323</ele>
        <time>2016-01-30T10:16:36Z</time>
      </trkpt>
      <trkpt lat="43.78506" lon="3.28716">
        <ele>337.3195177273</ele>
        <time>2016-01-30T10:17:51Z</time>
      </trkpt>
      <trkpt lat="43.78543" lon="3.28716">
        <ele>340.72691536471</ele>
        <time>2016-01-30T10:18:38Z</time>
      </trkpt>
      <trkpt lat="43.78559" lon="3.28714">
        <ele>344.76027902543</ele>
        <time>2016-01-30T10:18:55Z</time>
      </trkpt>
      <trkpt lat="43.78604" lon="3.28738">
        <ele>348.08842364278</ele>
        <time>2016-01-30T10:20:01Z</time>
      </trkpt>
      <trkpt lat="43.78633" lon="3.28763">
        <ele>351.52712378187</ele>
        <time>2016-01-30T10:20:35Z</time>
      </trkpt>
      <trkpt lat="43.78654" lon="3.2877">
        <ele>354.84338522411</ele>
        <time>2016-01-30T10:21:04Z</time>
      </trkpt>
      <trkpt lat="43.78676" lon="3.28777">
        <ele>358.11151500022</ele>
        <time>2016-01-30T10:21:30Z</time>
      </trkpt>
      <trkpt lat="43.78698" lon="3.28788">
        <ele>361.55347225704</ele>
        <time>2016-01-30T10:22:05Z</time>
      </trkpt>
      <trkpt lat="43.78789" lon="3.28785">
        <ele>367.70387735354</ele>
        <time>2016-01-30T10:24:00Z</time>
      </trkpt>
      <trkpt lat="43.78793" lon="3.2878">
        <ele>367.70387735354</ele>
        <time>2016-01-30T10:24:00Z</time>
      </trkpt>
      <trkpt lat="43.78793" lon="3.28779">
        <ele>367.70387735354</ele>
        <time>2016-01-30T10:24:01Z</time>
      </trkpt>
      <trkpt lat="43.78794" lon="3.2877">
        <ele>373.65618688986</ele>
        <time>2016-01-30T10:24:17Z</time>
      </trkpt>
      <trkpt lat="43.78794" lon="3.28764">
        <ele>373.65618688986</ele>
        <time>2016-01-30T10:24:17Z</time>
      </trkpt>
      <trkpt lat="43.78794" lon="3.28743">
        <ele>379.13967991117</ele>
        <time>2016-01-30T10:24:35Z</time>
      </trkpt>
      <trkpt lat="43.78796" lon="3.28724">
        <ele>384.25357231303</ele>
        <time>2016-01-30T10:25:03Z</time>
      </trkpt>
      <trkpt lat="43.7879" lon="3.28675">
        <ele>388.31600420063</ele>
        <time>2016-01-30T10:25:45Z</time>
      </trkpt>
      <trkpt lat="43.78813" lon="3.28651">
        <ele>390.53746565588</ele>
        <time>2016-01-30T10:26:59Z</time>
      </trkpt>
      <trkpt lat="43.78812" lon="3.2862">
        <ele>391.15215270222</ele>
        <time>2016-01-30T10:28:00Z</time>
      </trkpt>
      <trkpt lat="43.78813" lon="3.28602">
        <ele>390.55241559661</ele>
        <time>2016-01-30T10:28:30Z</time>
      </trkpt>
      <trkpt lat="43.7882" lon="3.28602">
        <ele>390.55241559661</ele>
        <time>2016-01-30T10:28:50Z</time>
      </trkpt>
      <trkpt lat="43.78821" lon="3.28604">
        <ele>390.55241559661</ele>
        <time>2016-01-30T10:28:55Z</time>
      </trkpt>
      <trkpt lat="43.78827" lon="3.28583">
        <ele>388.73408686065</ele>
        <time>2016-01-30T10:29:39Z</time>
      </trkpt>
      <trkpt lat="43.78826" lon="3.2857">
        <ele>386.04210234116</ele>
        <time>2016-01-30T10:30:46Z</time>
      </trkpt>
      <trkpt lat="43.78825" lon="3.28564">
        <ele>386.04210234116</ele>
        <time>2016-01-30T10:30:50Z</time>
      </trkpt>
      <trkpt lat="43.78824" lon="3.2856">
        <ele>386.04210234116</ele>
        <time>2016-01-30T10:30:55Z</time>
      </trkpt>
      <trkpt lat="43.78823" lon="3.2855">
        <ele>383.32886627576</ele>
        <time>2016-01-30T10:31:05Z</time>
      </trkpt>
      <trkpt lat="43.78823" lon="3.28544">
        <ele>383.32886627576</ele>
        <time>2016-01-30T10:31:10Z</time>
      </trkpt>
      <trkpt lat="43.7882" lon="3.28532">
        <ele>380.63320128661</ele>
        <time>2016-01-30T10:31:20Z</time>
      </trkpt>
      <trkpt lat="43.78819" lon="3.28526">
        <ele>380.63320128661</ele>
        <time>2016-01-30T10:31:25Z</time>
      </trkpt>
      <trkpt lat="43.78818" lon="3.28502">
        <ele>378.08072362058</ele>
        <time>2016-01-30T10:31:40Z</time>
      </trkpt>
      <trkpt lat="43.78823" lon="3.28477">
        <ele>375.75698478004</ele>
        <time>2016-01-30T10:32:10Z</time>
      </trkpt>
      <trkpt lat="43.7883" lon="3.28467">
        <ele>373.5885889667</ele>
        <time>2016-01-30T10:32:17Z</time>
      </trkpt>
      <trkpt lat="43.78858" lon="3.28431">
        <ele>371.80706593269</ele>
        <time>2016-01-30T10:32:55Z</time>
      </trkpt>
      <trkpt lat="43.78924" lon="3.28319">
        <ele>371.54484281841</ele>
        <time>2016-01-30T10:34:55Z</time>
      </trkpt>
      <trkpt lat="43.78929" lon="3.28313">
        <ele>371.54484281841</ele>
        <time>2016-01-30T10:34:55Z</time>
      </trkpt>
      <trkpt lat="43.78968" lon="3.28279">
        <ele>372.08935865878</ele>
        <time>2016-01-30T10:35:43Z</time>
      </trkpt>
      <trkpt lat="43.79027" lon="3.28217">
        <ele>373.83401232336</ele>
        <time>2016-01-30T10:36:55Z</time>
      </trkpt>
      <trkpt lat="43.79057" lon="3.28173">
        <ele>375.88407396763</ele>
        <time>2016-01-30T10:37:37Z</time>
      </trkpt>
      <trkpt lat="43.79059" lon="3.2817">
        <ele>375.88407396763</ele>
        <time>2016-01-30T10:37:37Z</time>
      </trkpt>
      <trkpt lat="43.79207" lon="3.28145">
        <ele>376.76758210991</ele>
        <time>2016-01-30T10:40:04Z</time>
      </trkpt>
      <trkpt lat="43.79254" lon="3.28172">
        <ele>377.21091580023</ele>
        <time>2016-01-30T10:40:45Z</time>
      </trkpt>
      <trkpt lat="43.79259" lon="3.28176">
        <ele>377.21091580023</ele>
        <time>2016-01-30T10:40:51Z</time>
      </trkpt>
      <trkpt lat="43.79267" lon="3.28184">
        <ele>377.462592147</ele>
        <time>2016-01-30T10:41:00Z</time>
      </trkpt>
      <trkpt lat="43.79271" lon="3.28189">
        <ele>377.462592147</ele>
        <time>2016-01-30T10:41:05Z</time>
      </trkpt>
      <trkpt lat="43.79275" lon="3.28195">
        <ele>377.64633818541</ele>
        <time>2016-01-30T10:41:10Z</time>
      </trkpt>
      <trkpt lat="43.79335" lon="3.28209">
        <ele>378.21900690881</ele>
        <time>2016-01-30T10:42:41Z</time>
      </trkpt>
      <trkpt lat="43.79352" lon="3.2821">
        <ele>379.24019675427</ele>
        <time>2016-01-30T10:42:57Z</time>
      </trkpt>
      <trkpt lat="43.79397" lon="3.28234">
        <ele>382.15952495077</ele>
        <time>2016-01-30T10:44:07Z</time>
      </trkpt>
      <trkpt lat="43.794" lon="3.28239">
        <ele>382.15952495077</ele>
        <time>2016-01-30T10:44:07Z</time>
      </trkpt>
      <trkpt lat="43.79407" lon="3.28243">
        <ele>385.33506368661</ele>
        <time>2016-01-30T10:44:15Z</time>
      </trkpt>
      <trkpt lat="43.79427" lon="3.28239">
        <ele>389.50934856251</ele>
        <time>2016-01-30T10:44:51Z</time>
      </trkpt>
      <trkpt lat="43.79428" lon="3.28241">
        <ele>389.50934856251</ele>
        <time>2016-01-30T10:44:58Z</time>
      </trkpt>
      <trkpt lat="43.79465" lon="3.28292">
        <ele>396.24493916971</ele>
        <time>2016-01-30T10:47:02Z</time>
      </trkpt>
      <trkpt lat="43.79467" lon="3.28298">
        <ele>396.24493916971</ele>
        <time>2016-01-30T10:47:05Z</time>
      </trkpt>
      <trkpt lat="43.79491" lon="3.28309">
        <ele>405.06982327868</ele>
        <time>2016-01-30T10:48:16Z</time>
      </trkpt>
      <trkpt lat="43.79492" lon="3.28308">
        <ele>405.06982327868</ele>
        <time>2016-01-30T10:48:16Z</time>
      </trkpt>
      <trkpt lat="43.79494" lon="3.28295">
        <ele>413.34474565162</ele>
        <time>2016-01-30T10:48:38Z</time>
      </trkpt>
      <trkpt lat="43.79501" lon="3.28292">
        <ele>413.34474565162</ele>
        <time>2016-01-30T10:49:00Z</time>
      </trkpt>
      <trkpt lat="43.7951" lon="3.2827">
        <ele>421.79922437037</ele>
        <time>2016-01-30T10:49:28Z</time>
      </trkpt>
      <trkpt lat="43.79514" lon="3.2826">
        <ele>421.79922437037</ele>
        <time>2016-01-30T10:49:40Z</time>
      </trkpt>
      <trkpt lat="43.79519" lon="3.2823">
        <ele>430.21098157191</ele>
        <time>2016-01-30T10:50:19Z</time>
      </trkpt>
      <trkpt lat="43.79561" lon="3.28266">
        <ele>439.54333452182</ele>
        <time>2016-01-30T10:52:09Z</time>
      </trkpt>
      <trkpt lat="43.79564" lon="3.28269">
        <ele>439.54333452182</ele>
        <time>2016-01-30T10:52:10Z</time>
      </trkpt>
      <trkpt lat="43.79579" lon="3.28269">
        <ele>448.39310304657</ele>
        <time>2016-01-30T10:52:50Z</time>
      </trkpt>
      <trkpt lat="43.79578" lon="3.28257">
        <ele>456.50340892069</ele>
        <time>2016-01-30T10:53:06Z</time>
      </trkpt>
      <trkpt lat="43.79577" lon="3.28218">
        <ele>464.52535362185</ele>
        <time>2016-01-30T10:53:56Z</time>
      </trkpt>
      <trkpt lat="43.79576" lon="3.28197">
        <ele>472.01468191782</ele>
        <time>2016-01-30T10:54:15Z</time>
      </trkpt>
      <trkpt lat="43.79565" lon="3.28159">
        <ele>479.3311198214</ele>
        <time>2016-01-30T10:54:51Z</time>
      </trkpt>
      <trkpt lat="43.79549" lon="3.28124">
        <ele>486.54647558923</ele>
        <time>2016-01-30T10:55:30Z</time>
      </trkpt>
      <trkpt lat="43.79546" lon="3.28108">
        <ele>493.27917819536</ele>
        <time>2016-01-30T10:55:45Z</time>
      </trkpt>
      <trkpt lat="43.79545" lon="3.28094">
        <ele>499.65516216012</ele>
        <time>2016-01-30T10:56:08Z</time>
      </trkpt>
      <trkpt lat="43.79525" lon="3.28042">
        <ele>506.26849135421</ele>
        <time>2016-01-30T10:57:04Z</time>
      </trkpt>
      <trkpt lat="43.79522" lon="3.2803">
        <ele>512.28218700884</ele>
        <time>2016-01-30T10:57:30Z</time>
      </trkpt>
      <trkpt lat="43.79517" lon="3.28007">
        <ele>518.25166889161</ele>
        <time>2016-01-30T10:58:01Z</time>
      </trkpt>
      <trkpt lat="43.79517" lon="3.28004">
        <ele>518.25166889161</ele>
        <time>2016-01-30T10:58:05Z</time>
      </trkpt>
      <trkpt lat="43.7952" lon="3.27999">
        <ele>518.25166889161</ele>
        <time>2016-01-30T10:58:15Z</time>
      </trkpt>
      <trkpt lat="43.79519" lon="3.28">
        <ele>518.25166889161</ele>
        <time>2016-01-30T10:58:20Z</time>
      </trkpt>
      <trkpt lat="43.7952" lon="3.27993">
        <ele>525.85968559139</ele>
        <time>2016-01-30T10:59:45Z</time>
      </trkpt>
      <trkpt lat="43.79522" lon="3.27992">
        <ele>525.85968559139</ele>
        <time>2016-01-30T10:59:50Z</time>
      </trkpt>
      <trkpt lat="43.79526" lon="3.27989">
        <ele>525.85968559139</ele>
        <time>2016-01-30T11:00:00Z</time>
      </trkpt>
      <trkpt lat="43.79528" lon="3.27986">
        <ele>532.72236108446</ele>
        <time>2016-01-30T11:00:05Z</time>
      </trkpt>
      <trkpt lat="43.79531" lon="3.27983">
        <ele>532.72236108446</ele>
        <time>2016-01-30T11:00:10Z</time>
      </trkpt>
      <trkpt lat="43.79532" lon="3.27982">
        <ele>532.72236108446</ele>
        <time>2016-01-30T11:00:15Z</time>
      </trkpt>
      <trkpt lat="43.79532" lon="3.27982">
        <ele>532.72236108446</ele>
        <time>2016-01-30T11:00:20Z</time>
      </trkpt>
      <trkpt lat="43.79534" lon="3.2798">
        <ele>532.72236108446</ele>
        <time>2016-01-30T11:00:35Z</time>
      </trkpt>
      <trkpt lat="43.79537" lon="3.27973">
        <ele>539.13002362339</ele>
        <time>2016-01-30T11:00:45Z</time>
      </trkpt>
      <trkpt lat="43.7954" lon="3.27971">
        <ele>539.13002362339</ele>
        <time>2016-01-30T11:00:50Z</time>
      </trkpt>
      <trkpt lat="43.79544" lon="3.27963">
        <ele>545.00697010148</ele>
        <time>2016-01-30T11:01:00Z</time>
      </trkpt>
      <trkpt lat="43.79546" lon="3.27961">
        <ele>545.00697010148</ele>
        <time>2016-01-30T11:01:05Z</time>
      </trkpt>
      <trkpt lat="43.79552" lon="3.27955">
        <ele>550.27044545258</ele>
        <time>2016-01-30T11:01:16Z</time>
      </trkpt>
      <trkpt lat="43.79562" lon="3.27951">
        <ele>555.29275869927</ele>
        <time>2016-01-30T11:02:04Z</time>
      </trkpt>
      <trkpt lat="43.79561" lon="3.27955">
        <ele>555.29275869927</ele>
        <time>2016-01-30T11:02:05Z</time>
      </trkpt>
      <trkpt lat="43.79599" lon="3.27963">
        <ele>561.89045818971</ele>
        <time>2016-01-30T11:05:00Z</time>
      </trkpt>
      <trkpt lat="43.79598" lon="3.27968">
        <ele>561.89045818971</ele>
        <time>2016-01-30T11:05:08Z</time>
      </trkpt>
      <trkpt lat="43.7967" lon="3.27999">
        <ele>570.28647176339</ele>
        <time>2016-01-30T11:07:58Z</time>
      </trkpt>
      <trkpt lat="43.79675" lon="3.27999">
        <ele>570.28647176339</ele>
        <time>2016-01-30T11:08:00Z</time>
      </trkpt>
      <trkpt lat="43.79674" lon="3.28006">
        <ele>579.34186343766</ele>
        <time>2016-01-30T11:09:00Z</time>
      </trkpt>
      <trkpt lat="43.79748" lon="3.28027">
        <ele>589.4994087775</ele>
        <time>2016-01-30T11:10:45Z</time>
      </trkpt>
      <trkpt lat="43.79759" lon="3.28031">
        <ele>598.83062595487</ele>
        <time>2016-01-30T11:11:08Z</time>
      </trkpt>
      <trkpt lat="43.79761" lon="3.28036">
        <ele>598.83062595487</ele>
        <time>2016-01-30T11:11:25Z</time>
      </trkpt>
      <trkpt lat="43.79746" lon="3.28045">
        <ele>607.68543914358</ele>
        <time>2016-01-30T11:12:08Z</time>
      </trkpt>
      <trkpt lat="43.79753" lon="3.28083">
        <ele>616.34659637239</ele>
        <time>2016-01-30T11:13:00Z</time>
      </trkpt>
      <trkpt lat="43.79788" lon="3.28087">
        <ele>624.93284891178</ele>
        <time>2016-01-30T11:14:07Z</time>
      </trkpt>
      <trkpt lat="43.79847" lon="3.28107">
        <ele>635.02604043956</ele>
        <time>2016-01-30T11:15:31Z</time>
      </trkpt>
      <trkpt lat="43.79928" lon="3.28154">
        <ele>645.2754662783</ele>
        <time>2016-01-30T11:16:45Z</time>
      </trkpt>
      <trkpt lat="43.79948" lon="3.28171">
        <ele>654.61706010401</ele>
        <time>2016-01-30T11:17:35Z</time>
      </trkpt>
      <trkpt lat="43.79957" lon="3.28165">
        <ele>662.8901038313</ele>
        <time>2016-01-30T11:17:46Z</time>
      </trkpt>
      <trkpt lat="43.79994" lon="3.28125">
        <ele>670.41075029269</ele>
        <time>2016-01-30T11:18:56Z</time>
      </trkpt>
      <trkpt lat="43.80007" lon="3.28128">
        <ele>677.05617709156</ele>
        <time>2016-01-30T11:19:28Z</time>
      </trkpt>
      <trkpt lat="43.80037" lon="3.281">
        <ele>683.754028392</ele>
        <time>2016-01-30T11:20:55Z</time>
      </trkpt>
      <trkpt lat="43.80035" lon="3.28098">
        <ele>683.754028392</ele>
        <time>2016-01-30T11:21:05Z</time>
      </trkpt>
      <trkpt lat="43.8003" lon="3.28062">
        <ele>689.38786956877</ele>
        <time>2016-01-30T11:21:44Z</time>
      </trkpt>
      <trkpt lat="43.80025" lon="3.28036">
        <ele>694.08067024162</ele>
        <time>2016-01-30T11:22:05Z</time>
      </trkpt>
      <trkpt lat="43.80037" lon="3.27984">
        <ele>697.44452629608</ele>
        <time>2016-01-30T11:23:27Z</time>
      </trkpt>
      <trkpt lat="43.80043" lon="3.27978">
        <ele>697.44452629608</ele>
        <time>2016-01-30T11:23:38Z</time>
      </trkpt>
      <trkpt lat="43.80044" lon="3.27977">
        <ele>697.44452629608</ele>
        <time>2016-01-30T11:23:38Z</time>
      </trkpt>
      <trkpt lat="43.8006" lon="3.27923">
        <ele>700.56636512214</ele>
        <time>2016-01-30T11:24:55Z</time>
      </trkpt>
      <trkpt lat="43.80068" lon="3.27906">
        <ele>703.05506515027</ele>
        <time>2016-01-30T11:25:16Z</time>
      </trkpt>
      <trkpt lat="43.80071" lon="3.27889">
        <ele>704.89638483328</ele>
        <time>2016-01-30T11:25:40Z</time>
      </trkpt>
      <trkpt lat="43.80075" lon="3.27862">
        <ele>706.10792504203</ele>
        <time>2016-01-30T11:25:58Z</time>
      </trkpt>
      <trkpt lat="43.80076" lon="3.27839">
        <ele>706.82319661844</ele>
        <time>2016-01-30T11:26:16Z</time>
      </trkpt>
      <trkpt lat="43.80096" lon="3.278">
        <ele>706.97985120024</ele>
        <time>2016-01-30T11:27:10Z</time>
      </trkpt>
      <trkpt lat="43.80159" lon="3.27759">
        <ele>707.34350893887</ele>
        <time>2016-01-30T11:28:57Z</time>
      </trkpt>
      <trkpt lat="43.80162" lon="3.27754">
        <ele>707.34350893887</ele>
        <time>2016-01-30T11:29:02Z</time>
      </trkpt>
      <trkpt lat="43.80189" lon="3.27673">
        <ele>706.64755834713</ele>
        <time>2016-01-30T11:30:32Z</time>
      </trkpt>
      <trkpt lat="43.80195" lon="3.27656">
        <ele>705.37945008191</ele>
        <time>2016-01-30T11:31:21Z</time>
      </trkpt>
      <trkpt lat="43.80211" lon="3.2764">
        <ele>703.57409631698</ele>
        <time>2016-01-30T11:31:54Z</time>
      </trkpt>
      <trkpt lat="43.80245" lon="3.27625">
        <ele>701.1642101656</ele>
        <time>2016-01-30T11:32:52Z</time>
      </trkpt>
      <trkpt lat="43.80249" lon="3.27625">
        <ele>701.1642101656</ele>
        <time>2016-01-30T11:33:03Z</time>
      </trkpt>
      <trkpt lat="43.80292" lon="3.27602">
        <ele>698.42041515325</ele>
        <time>2016-01-30T11:34:10Z</time>
      </trkpt>
      <trkpt lat="43.80302" lon="3.276">
        <ele>695.55077934145</ele>
        <time>2016-01-30T11:34:18Z</time>
      </trkpt>
      <trkpt lat="43.80309" lon="3.27591">
        <ele>692.56065852044</ele>
        <time>2016-01-30T11:34:26Z</time>
      </trkpt>
      <trkpt lat="43.80328" lon="3.27573">
        <ele>689.5270020624</ele>
        <time>2016-01-30T11:35:02Z</time>
      </trkpt>
      <trkpt lat="43.80346" lon="3.27559">
        <ele>686.67930452805</ele>
        <time>2016-01-30T11:35:33Z</time>
      </trkpt>
      <trkpt lat="43.80362" lon="3.27549">
        <ele>683.96973800546</ele>
        <time>2016-01-30T11:36:06Z</time>
      </trkpt>
      <trkpt lat="43.80399" lon="3.27509">
        <ele>681.5404398084</ele>
        <time>2016-01-30T11:37:10Z</time>
      </trkpt>
      <trkpt lat="43.80402" lon="3.27507">
        <ele>681.5404398084</ele>
        <time>2016-01-30T11:37:15Z</time>
      </trkpt>
      <trkpt lat="43.80425" lon="3.27487">
        <ele>679.44969772834</ele>
        <time>2016-01-30T11:38:08Z</time>
      </trkpt>
      <trkpt lat="43.80443" lon="3.27451">
        <ele>677.63469756813</ele>
        <time>2016-01-30T11:38:50Z</time>
      </trkpt>
      <trkpt lat="43.80448" lon="3.27439">
        <ele>675.9494099063</ele>
        <time>2016-01-30T11:39:22Z</time>
      </trkpt>
      <trkpt lat="43.80472" lon="3.27425">
        <ele>674.66109609406</ele>
        <time>2016-01-30T11:40:08Z</time>
      </trkpt>
      <trkpt lat="43.80476" lon="3.27416">
        <ele>674.66109609406</ele>
        <time>2016-01-30T11:40:08Z</time>
      </trkpt>
      <trkpt lat="43.80496" lon="3.27374">
        <ele>673.68419215801</ele>
        <time>2016-01-30T11:40:44Z</time>
      </trkpt>
      <trkpt lat="43.80497" lon="3.27373">
        <ele>673.68419215801</ele>
        <time>2016-01-30T11:40:45Z</time>
      </trkpt>
      <trkpt lat="43.80497" lon="3.2737">
        <ele>673.68419215801</ele>
        <time>2016-01-30T11:40:50Z</time>
      </trkpt>
      <trkpt lat="43.80501" lon="3.27366">
        <ele>673.68419215801</ele>
        <time>2016-01-30T11:40:55Z</time>
      </trkpt>
      <trkpt lat="43.80504" lon="3.27361">
        <ele>672.76500307066</ele>
        <time>2016-01-30T11:41:00Z</time>
      </trkpt>
      <trkpt lat="43.80506" lon="3.27361">
        <ele>672.76500307066</ele>
        <time>2016-01-30T11:41:05Z</time>
      </trkpt>
      <trkpt lat="43.80509" lon="3.2736">
        <ele>672.76500307066</ele>
        <time>2016-01-30T11:41:14Z</time>
      </trkpt>
      <trkpt lat="43.80511" lon="3.27366">
        <ele>671.99916441229</ele>
        <time>2016-01-30T11:41:23Z</time>
      </trkpt>
      <trkpt lat="43.80511" lon="3.27366">
        <ele>671.99916441229</ele>
        <time>2016-01-30T11:41:25Z</time>
      </trkpt>
      <trkpt lat="43.80514" lon="3.27367">
        <ele>671.99916441229</ele>
        <time>2016-01-30T11:41:47Z</time>
      </trkpt>
      <trkpt lat="43.8052" lon="3.27336">
        <ele>671.58954228692</ele>
        <time>2016-01-30T11:43:00Z</time>
      </trkpt>
      <trkpt lat="43.80543" lon="3.27292">
        <ele>671.13164449802</ele>
        <time>2016-01-30T11:44:17Z</time>
      </trkpt>
      <trkpt lat="43.80556" lon="3.27295">
        <ele>670.71140619431</ele>
        <time>2016-01-30T11:44:17Z</time>
      </trkpt>
      <trkpt lat="43.80563" lon="3.27294">
        <ele>670.71140619431</ele>
        <time>2016-01-30T11:44:34Z</time>
      </trkpt>
      <trkpt lat="43.8061" lon="3.27292">
        <ele>671.05628086894</ele>
        <time>2016-01-30T11:45:35Z</time>
      </trkpt>
      <trkpt lat="43.80623" lon="3.27283">
        <ele>671.52616019448</ele>
        <time>2016-01-30T11:46:12Z</time>
      </trkpt>
      <trkpt lat="43.80631" lon="3.27277">
        <ele>671.87294211391</ele>
        <time>2016-01-30T11:47:00Z</time>
      </trkpt>
      <trkpt lat="43.80635" lon="3.27266">
        <ele>671.87294211391</ele>
        <time>2016-01-30T11:47:20Z</time>
      </trkpt>
      <trkpt lat="43.80636" lon="3.27254">
        <ele>672.58714656291</ele>
        <time>2016-01-30T11:48:13Z</time>
      </trkpt>
      <trkpt lat="43.80636" lon="3.27256">
        <ele>672.58714656291</ele>
        <time>2016-01-30T11:48:13Z</time>
      </trkpt>
      <trkpt lat="43.80641" lon="3.27259">
        <ele>672.58714656291</ele>
        <time>2016-01-30T11:48:39Z</time>
      </trkpt>
      <trkpt lat="43.80646" lon="3.27263">
        <ele>673.4732304995</ele>
        <time>2016-01-30T11:48:40Z</time>
      </trkpt>
      <trkpt lat="43.8066" lon="3.27254">
        <ele>674.42112203897</ele>
        <time>2016-01-30T11:49:04Z</time>
      </trkpt>
      <trkpt lat="43.80663" lon="3.27235">
        <ele>675.44350979462</ele>
        <time>2016-01-30T11:49:18Z</time>
      </trkpt>
      <trkpt lat="43.80667" lon="3.27209">
        <ele>676.52270107655</ele>
        <time>2016-01-30T11:49:35Z</time>
      </trkpt>
      <trkpt lat="43.80671" lon="3.27193">
        <ele>677.77145439161</ele>
        <time>2016-01-30T11:49:57Z</time>
      </trkpt>
      <trkpt lat="43.80673" lon="3.27184">
        <ele>677.77145439161</ele>
        <time>2016-01-30T11:49:57Z</time>
      </trkpt>
      <trkpt lat="43.80684" lon="3.27158">
        <ele>679.85545109084</ele>
        <time>2016-01-30T11:50:52Z</time>
      </trkpt>
      <trkpt lat="43.80687" lon="3.27157">
        <ele>679.85545109084</ele>
        <time>2016-01-30T11:50:52Z</time>
      </trkpt>
      <trkpt lat="43.8069" lon="3.27141">
        <ele>681.88999850038</ele>
        <time>2016-01-30T11:51:05Z</time>
      </trkpt>
      <trkpt lat="43.80689" lon="3.27087">
        <ele>684.2081396716</ele>
        <time>2016-01-30T11:52:00Z</time>
      </trkpt>
      <trkpt lat="43.80654" lon="3.2707">
        <ele>686.8867942792</ele>
        <time>2016-01-30T11:53:00Z</time>
      </trkpt>
      <trkpt lat="43.80661" lon="3.2706">
        <ele>689.82303461952</ele>
        <time>2016-01-30T11:53:30Z</time>
      </trkpt>
      <trkpt lat="43.80663" lon="3.27054">
        <ele>689.82303461952</ele>
        <time>2016-01-30T11:53:39Z</time>
      </trkpt>
      <trkpt lat="43.80658" lon="3.27007">
        <ele>692.66114857689</ele>
        <time>2016-01-30T11:54:30Z</time>
      </trkpt>
      <trkpt lat="43.80662" lon="3.26988">
        <ele>695.38869791772</ele>
        <time>2016-01-30T11:55:07Z</time>
      </trkpt>
      <trkpt lat="43.80668" lon="3.26954">
        <ele>697.95107819542</ele>
        <time>2016-01-30T11:55:45Z</time>
      </trkpt>
      <trkpt lat="43.80679" lon="3.26917">
        <ele>700.12509320426</ele>
        <time>2016-01-30T11:56:43Z</time>
      </trkpt>
      <trkpt lat="43.80683" lon="3.2689">
        <ele>701.89227581927</ele>
        <time>2016-01-30T11:57:03Z</time>
      </trkpt>
      <trkpt lat="43.80672" lon="3.26885">
        <ele>703.00598676203</ele>
        <time>2016-01-30T11:57:30Z</time>
      </trkpt>
      <trkpt lat="43.80673" lon="3.26882">
        <ele>703.00598676203</ele>
        <time>2016-01-30T11:57:38Z</time>
      </trkpt>
      <trkpt lat="43.80671" lon="3.26872">
        <ele>703.97444785406</ele>
        <time>2016-01-30T11:57:48Z</time>
      </trkpt>
      <trkpt lat="43.8067" lon="3.26867">
        <ele>703.97444785406</ele>
        <time>2016-01-30T11:57:53Z</time>
      </trkpt>
      <trkpt lat="43.80651" lon="3.26844">
        <ele>704.54831957056</ele>
        <time>2016-01-30T11:58:39Z</time>
      </trkpt>
      <trkpt lat="43.80647" lon="3.26835">
        <ele>704.54831957056</ele>
        <time>2016-01-30T11:58:45Z</time>
      </trkpt>
      <trkpt lat="43.80646" lon="3.26832">
        <ele>704.90114857535</ele>
        <time>2016-01-30T11:58:50Z</time>
      </trkpt>
      <trkpt lat="43.80645" lon="3.26832">
        <ele>704.90114857535</ele>
        <time>2016-01-30T11:58:55Z</time>
      </trkpt>
      <trkpt lat="43.80646" lon="3.26834">
        <ele>704.90114857535</ele>
        <time>2016-01-30T11:59:35Z</time>
      </trkpt>
      <trkpt lat="43.80649" lon="3.26842">
        <ele>705.22312161266</ele>
        <time>2016-01-30T11:59:43Z</time>
      </trkpt>
      <trkpt lat="43.80663" lon="3.26863">
        <ele>705.51755305698</ele>
        <time>2016-01-30T12:00:07Z</time>
      </trkpt>
      <trkpt lat="43.80667" lon="3.26872">
        <ele>705.51755305698</ele>
        <time>2016-01-30T12:00:24Z</time>
      </trkpt>
      <trkpt lat="43.80656" lon="3.26883">
        <ele>705.4993145978</ele>
        <time>2016-01-30T12:00:40Z</time>
      </trkpt>
      <trkpt lat="43.80654" lon="3.26883">
        <ele>705.4993145978</ele>
        <time>2016-01-30T12:00:43Z</time>
      </trkpt>
      <trkpt lat="43.80651" lon="3.26881">
        <ele>705.4993145978</ele>
        <time>2016-01-30T12:00:46Z</time>
      </trkpt>
      <trkpt lat="43.80646" lon="3.26874">
        <ele>705.22209904808</ele>
        <time>2016-01-30T12:01:00Z</time>
      </trkpt>
      <trkpt lat="43.80644" lon="3.26871">
        <ele>705.22209904808</ele>
        <time>2016-01-30T12:01:00Z</time>
      </trkpt>
      <trkpt lat="43.80634" lon="3.26869">
        <ele>704.69309419869</ele>
        <time>2016-01-30T12:01:13Z</time>
      </trkpt>
      <trkpt lat="43.80622" lon="3.26871">
        <ele>704.02048815729</ele>
        <time>2016-01-30T12:01:22Z</time>
      </trkpt>
      <trkpt lat="43.80603" lon="3.26871">
        <ele>703.10310495255</ele>
        <time>2016-01-30T12:01:40Z</time>
      </trkpt>
      <trkpt lat="43.80592" lon="3.26868">
        <ele>702.0063432812</ele>
        <time>2016-01-30T12:02:00Z</time>
      </trkpt>
      <trkpt lat="43.80562" lon="3.26863">
        <ele>700.60387940828</ele>
        <time>2016-01-30T12:02:35Z</time>
      </trkpt>
      <trkpt lat="43.80549" lon="3.26841">
        <ele>699.12531175818</ele>
        <time>2016-01-30T12:03:09Z</time>
      </trkpt>
      <trkpt lat="43.80549" lon="3.2684">
        <ele>699.12531175818</ele>
        <time>2016-01-30T12:03:09Z</time>
      </trkpt>
      <trkpt lat="43.80551" lon="3.26824">
        <ele>697.74025914604</ele>
        <time>2016-01-30T12:05:09Z</time>
      </trkpt>
      <trkpt lat="43.80547" lon="3.26836">
        <ele>696.67757262326</ele>
        <time>2016-01-30T12:05:15Z</time>
      </trkpt>
      <trkpt lat="43.80546" lon="3.26838">
        <ele>696.67757262326</ele>
        <time>2016-01-30T12:05:20Z</time>
      </trkpt>
      <trkpt lat="43.80545" lon="3.2683">
        <ele>696.67757262326</ele>
        <time>2016-01-30T12:06:26Z</time>
      </trkpt>
      <trkpt lat="43.80442" lon="3.26625">
        <ele>695.39889898173</ele>
        <time>2016-01-30T12:09:39Z</time>
      </trkpt>
      <trkpt lat="43.80434" lon="3.26635">
        <ele>694.38588342249</ele>
        <time>2016-01-30T12:10:26Z</time>
      </trkpt>
      <trkpt lat="43.80427" lon="3.26606">
        <ele>693.52189141389</ele>
        <time>2016-01-30T12:10:46Z</time>
      </trkpt>
      <trkpt lat="43.80427" lon="3.26591">
        <ele>692.66949599446</ele>
        <time>2016-01-30T12:11:22Z</time>
      </trkpt>
      <trkpt lat="43.80382" lon="3.26541">
        <ele>691.88855633461</ele>
        <time>2016-01-30T12:12:34Z</time>
      </trkpt>
      <trkpt lat="43.80347" lon="3.26473">
        <ele>690.97481177816</ele>
        <time>2016-01-30T12:14:00Z</time>
      </trkpt>
      <trkpt lat="43.80347" lon="3.26467">
        <ele>690.97481177816</ele>
        <time>2016-01-30T12:14:05Z</time>
      </trkpt>
      <trkpt lat="43.80345" lon="3.26461">
        <ele>690.97481177816</ele>
        <time>2016-01-30T12:14:13Z</time>
      </trkpt>
      <trkpt lat="43.80346" lon="3.2646">
        <ele>690.1715916953</ele>
        <time>2016-01-30T12:14:15Z</time>
      </trkpt>
      <trkpt lat="43.80347" lon="3.26457">
        <ele>690.1715916953</ele>
        <time>2016-01-30T12:14:28Z</time>
      </trkpt>
      <trkpt lat="43.80297" lon="3.2633">
        <ele>689.53098680049</ele>
        <time>2016-01-30T12:16:13Z</time>
      </trkpt>
      <trkpt lat="43.80296" lon="3.26329">
        <ele>689.53098680049</ele>
        <time>2016-01-30T12:16:16Z</time>
      </trkpt>
      <trkpt lat="43.80271" lon="3.26275">
        <ele>688.98539782917</ele>
        <time>2016-01-30T12:17:05Z</time>
      </trkpt>
      <trkpt lat="43.80257" lon="3.26253">
        <ele>688.58709834986</ele>
        <time>2016-01-30T12:17:49Z</time>
      </trkpt>
      <trkpt lat="43.8024" lon="3.26231">
        <ele>688.32635293468</ele>
        <time>2016-01-30T12:17:50Z</time>
      </trkpt>
      <trkpt lat="43.80232" lon="3.26217">
        <ele>688.10718246245</ele>
        <time>2016-01-30T12:18:13Z</time>
      </trkpt>
      <trkpt lat="43.80228" lon="3.26199">
        <ele>687.97014149926</ele>
        <time>2016-01-30T12:18:15Z</time>
      </trkpt>
      <trkpt lat="43.80219" lon="3.26163">
        <ele>687.8516033846</ele>
        <time>2016-01-30T12:19:45Z</time>
      </trkpt>
      <trkpt lat="43.80225" lon="3.26108">
        <ele>687.64924287127</ele>
        <time>2016-01-30T12:21:08Z</time>
      </trkpt>
      <trkpt lat="43.80176" lon="3.26081">
        <ele>687.39810581789</ele>
        <time>2016-01-30T12:21:36Z</time>
      </trkpt>
      <trkpt lat="43.80153" lon="3.2608">
        <ele>687.27483711592</ele>
        <time>2016-01-30T12:22:07Z</time>
      </trkpt>
      <trkpt lat="43.80146" lon="3.26068">
        <ele>687.29856714375</ele>
        <time>2016-01-30T12:22:15Z</time>
      </trkpt>
      <trkpt lat="43.80142" lon="3.26065">
        <ele>687.29856714375</ele>
        <time>2016-01-30T12:22:22Z</time>
      </trkpt>
      <trkpt lat="43.8014" lon="3.26064">
        <ele>687.29856714375</ele>
        <time>2016-01-30T12:22:25Z</time>
      </trkpt>
      <trkpt lat="43.80136" lon="3.26063">
        <ele>687.51536903111</ele>
        <time>2016-01-30T12:22:30Z</time>
      </trkpt>
      <trkpt lat="43.80134" lon="3.26064">
        <ele>687.51536903111</ele>
        <time>2016-01-30T12:22:36Z</time>
      </trkpt>
      <trkpt lat="43.80125" lon="3.26067">
        <ele>688.25555835361</ele>
        <time>2016-01-30T12:22:57Z</time>
      </trkpt>
      <trkpt lat="43.80125" lon="3.26067">
        <ele>688.25555835361</ele>
        <time>2016-01-30T12:23:08Z</time>
      </trkpt>
      <trkpt lat="43.8012" lon="3.26055">
        <ele>689.21840587309</ele>
        <time>2016-01-30T12:23:41Z</time>
      </trkpt>
      <trkpt lat="43.80098" lon="3.26009">
        <ele>690.57136093611</ele>
        <time>2016-01-30T12:24:37Z</time>
      </trkpt>
      <trkpt lat="43.80097" lon="3.26006">
        <ele>690.57136093611</ele>
        <time>2016-01-30T12:24:52Z</time>
      </trkpt>
      <trkpt lat="43.801" lon="3.25997">
        <ele>692.13700217544</ele>
        <time>2016-01-30T12:25:00Z</time>
      </trkpt>
      <trkpt lat="43.8011" lon="3.25969">
        <ele>694.29796358762</ele>
        <time>2016-01-30T12:25:46Z</time>
      </trkpt>
      <trkpt lat="43.80116" lon="3.2594">
        <ele>696.60009095325</ele>
        <time>2016-01-30T12:26:15Z</time>
      </trkpt>
      <trkpt lat="43.80067" lon="3.25881">
        <ele>700.26509779852</ele>
        <time>2016-01-30T12:28:05Z</time>
      </trkpt>
      <trkpt lat="43.80065" lon="3.25874">
        <ele>700.26509779852</ele>
        <time>2016-01-30T12:28:05Z</time>
      </trkpt>
      <trkpt lat="43.80011" lon="3.25867">
        <ele>704.12981500484</ele>
        <time>2016-01-30T12:29:07Z</time>
      </trkpt>
      <trkpt lat="43.80007" lon="3.25866">
        <ele>704.12981500484</ele>
        <time>2016-01-30T12:29:07Z</time>
      </trkpt>
      <trkpt lat="43.79986" lon="3.2585">
        <ele>707.7789515822</ele>
        <time>2016-01-30T12:29:50Z</time>
      </trkpt>
      <trkpt lat="43.79969" lon="3.25837">
        <ele>711.18871241004</ele>
        <time>2016-01-30T12:29:50Z</time>
      </trkpt>
      <trkpt lat="43.79943" lon="3.25837">
        <ele>714.35226280135</ele>
        <time>2016-01-30T12:30:12Z</time>
      </trkpt>
      <trkpt lat="43.79913" lon="3.25815">
        <ele>717.26411093072</ele>
        <time>2016-01-30T12:30:48Z</time>
      </trkpt>
      <trkpt lat="43.79817" lon="3.25808">
        <ele>719.99209656724</ele>
        <time>2016-01-30T12:32:05Z</time>
      </trkpt>
      <trkpt lat="43.79794" lon="3.25814">
        <ele>722.44124840421</ele>
        <time>2016-01-30T12:32:27Z</time>
      </trkpt>
      <trkpt lat="43.79759" lon="3.2584">
        <ele>724.55336398677</ele>
        <time>2016-01-30T12:34:02Z</time>
      </trkpt>
      <trkpt lat="43.79665" lon="3.25876">
        <ele>726.52064443854</ele>
        <time>2016-01-30T12:34:33Z</time>
      </trkpt>
      <trkpt lat="43.79658" lon="3.2588">
        <ele>726.52064443854</ele>
        <time>2016-01-30T12:34:34Z</time>
      </trkpt>
      <trkpt lat="43.79637" lon="3.25884">
        <ele>727.09507103577</ele>
        <time>2016-01-30T12:36:26Z</time>
      </trkpt>
      <trkpt lat="43.79455" lon="3.25766">
        <ele>727.3581253221</ele>
        <time>2016-01-30T12:38:10Z</time>
      </trkpt>
      <trkpt lat="43.79434" lon="3.2575">
        <ele>727.83733244168</ele>
        <time>2016-01-30T12:38:49Z</time>
      </trkpt>
      <trkpt lat="43.79423" lon="3.2575">
        <ele>728.40135254121</ele>
        <time>2016-01-30T12:38:52Z</time>
      </trkpt>
      <trkpt lat="43.79419" lon="3.25743">
        <ele>728.40135254121</ele>
        <time>2016-01-30T12:39:03Z</time>
      </trkpt>
      <trkpt lat="43.79421" lon="3.2573">
        <ele>729.11575958771</ele>
        <time>2016-01-30T12:39:27Z</time>
      </trkpt>
      <trkpt lat="43.79414" lon="3.25727">
        <ele>729.11575958771</ele>
        <time>2016-01-30T12:39:27Z</time>
      </trkpt>
      <trkpt lat="43.79408" lon="3.25723">
        <ele>729.86810279759</ele>
        <time>2016-01-30T12:39:40Z</time>
      </trkpt>
      <trkpt lat="43.79387" lon="3.25698">
        <ele>730.90009033432</ele>
        <time>2016-01-30T12:40:42Z</time>
      </trkpt>
      <trkpt lat="43.79378" lon="3.25699">
        <ele>731.8873969385</ele>
        <time>2016-01-30T12:40:42Z</time>
      </trkpt>
      <trkpt lat="43.79367" lon="3.25688">
        <ele>733.04856988434</ele>
        <time>2016-01-30T12:41:04Z</time>
      </trkpt>
      <trkpt lat="43.79318" lon="3.25681">
        <ele>734.47044169365</ele>
        <time>2016-01-30T12:42:10Z</time>
      </trkpt>
      <trkpt lat="43.79214" lon="3.25642">
        <ele>737.57308336041</ele>
        <time>2016-01-30T12:44:33Z</time>
      </trkpt>
      <trkpt lat="43.79216" lon="3.25642">
        <ele>737.57308336041</ele>
        <time>2016-01-30T12:44:33Z</time>
      </trkpt>
      <trkpt lat="43.79214" lon="3.25639">
        <ele>737.57308336041</ele>
        <time>2016-01-30T12:44:59Z</time>
      </trkpt>
      <trkpt lat="43.79207" lon="3.25647">
        <ele>741.14570391</ele>
        <time>2016-01-30T12:44:59Z</time>
      </trkpt>
      <trkpt lat="43.79179" lon="3.25605">
        <ele>744.39671576073</ele>
        <time>2016-01-30T12:45:47Z</time>
      </trkpt>
      <trkpt lat="43.79178" lon="3.25602">
        <ele>744.39671576073</ele>
        <time>2016-01-30T12:45:55Z</time>
      </trkpt>
      <trkpt lat="43.79175" lon="3.2559">
        <ele>747.3719141372</ele>
        <time>2016-01-30T12:46:07Z</time>
      </trkpt>
      <trkpt lat="43.79181" lon="3.25529">
        <ele>750.73432303644</ele>
        <time>2016-01-30T12:47:01Z</time>
      </trkpt>
      <trkpt lat="43.79179" lon="3.25526">
        <ele>750.73432303644</ele>
        <time>2016-01-30T12:47:09Z</time>
      </trkpt>
      <trkpt lat="43.79165" lon="3.25509">
        <ele>754.13178030033</ele>
        <time>2016-01-30T12:47:35Z</time>
      </trkpt>
      <trkpt lat="43.79137" lon="3.25497">
        <ele>757.41098651149</ele>
        <time>2016-01-30T12:48:03Z</time>
      </trkpt>
      <trkpt lat="43.7913" lon="3.25491">
        <ele>757.41098651149</ele>
        <time>2016-01-30T12:49:03Z</time>
      </trkpt>
      <trkpt lat="43.79093" lon="3.25439">
        <ele>760.58892235688</ele>
        <time>2016-01-30T12:49:04Z</time>
      </trkpt>
      <trkpt lat="43.79078" lon="3.25439">
        <ele>763.37914187889</ele>
        <time>2016-01-30T12:49:23Z</time>
      </trkpt>
      <trkpt lat="43.79043" lon="3.2544">
        <ele>765.25810082585</ele>
        <time>2016-01-30T12:50:05Z</time>
      </trkpt>
      <trkpt lat="43.79007" lon="3.25408">
        <ele>766.62251861992</ele>
        <time>2016-01-30T12:51:04Z</time>
      </trkpt>
      <trkpt lat="43.78999" lon="3.25401">
        <ele>767.71187886635</ele>
        <time>2016-01-30T12:51:04Z</time>
      </trkpt>
      <trkpt lat="43.78987" lon="3.25407">
        <ele>767.9996184252</ele>
        <time>2016-01-30T12:51:30Z</time>
      </trkpt>
      <trkpt lat="43.7897" lon="3.25391">
        <ele>767.73520696169</ele>
        <time>2016-01-30T12:51:58Z</time>
      </trkpt>
      <trkpt lat="43.78968" lon="3.25382">
        <ele>767.73520696169</ele>
        <time>2016-01-30T12:52:04Z</time>
      </trkpt>
      <trkpt lat="43.78911" lon="3.25364">
        <ele>766.4020744969</ele>
        <time>2016-01-30T12:53:21Z</time>
      </trkpt>
      <trkpt lat="43.78882" lon="3.25346">
        <ele>764.67757610604</ele>
        <time>2016-01-30T12:54:03Z</time>
      </trkpt>
      <trkpt lat="43.78879" lon="3.25346">
        <ele>764.67757610604</ele>
        <time>2016-01-30T12:54:05Z</time>
      </trkpt>
      <trkpt lat="43.78866" lon="3.25373">
        <ele>762.91665810933</ele>
        <time>2016-01-30T12:54:43Z</time>
      </trkpt>
      <trkpt lat="43.78863" lon="3.25384">
        <ele>762.91665810933</ele>
        <time>2016-01-30T12:54:59Z</time>
      </trkpt>
      <trkpt lat="43.78862" lon="3.2539">
        <ele>761.26098335976</ele>
        <time>2016-01-30T12:55:00Z</time>
      </trkpt>
      <trkpt lat="43.78862" lon="3.25391">
        <ele>761.26098335976</ele>
        <time>2016-01-30T12:55:05Z</time>
      </trkpt>
      <trkpt lat="43.78853" lon="3.25413">
        <ele>759.94239479058</ele>
        <time>2016-01-30T12:55:40Z</time>
      </trkpt>
      <trkpt lat="43.78852" lon="3.2542">
        <ele>759.94239479058</ele>
        <time>2016-01-30T12:55:47Z</time>
      </trkpt>
      <trkpt lat="43.78851" lon="3.25439">
        <ele>758.67034683356</ele>
        <time>2016-01-30T12:56:00Z</time>
      </trkpt>
      <trkpt lat="43.7885" lon="3.25441">
        <ele>758.67034683356</ele>
        <time>2016-01-30T12:56:02Z</time>
      </trkpt>
      <trkpt lat="43.78842" lon="3.25458">
        <ele>757.39162697746</ele>
        <time>2016-01-30T12:56:26Z</time>
      </trkpt>
      <trkpt lat="43.7884" lon="3.25466">
        <ele>757.39162697746</ele>
        <time>2016-01-30T12:56:44Z</time>
      </trkpt>
      <trkpt lat="43.78834" lon="3.25487">
        <ele>756.2009944166</ele>
        <time>2016-01-30T12:57:02Z</time>
      </trkpt>
      <trkpt lat="43.78834" lon="3.25488">
        <ele>756.2009944166</ele>
        <time>2016-01-30T12:57:02Z</time>
      </trkpt>
      <trkpt lat="43.78817" lon="3.25525">
        <ele>755.27238203593</ele>
        <time>2016-01-30T12:58:02Z</time>
      </trkpt>
      <trkpt lat="43.78791" lon="3.2556">
        <ele>754.70846628195</ele>
        <time>2016-01-30T12:59:01Z</time>
      </trkpt>
      <trkpt lat="43.78745" lon="3.25553">
        <ele>754.4303128072</ele>
        <time>2016-01-30T13:00:07Z</time>
      </trkpt>
      <trkpt lat="43.78738" lon="3.25555">
        <ele>754.4303128072</ele>
        <time>2016-01-30T13:00:09Z</time>
      </trkpt>
      <trkpt lat="43.7871" lon="3.25578">
        <ele>754.55120872127</ele>
        <time>2016-01-30T13:01:18Z</time>
      </trkpt>
      <trkpt lat="43.78696" lon="3.25635">
        <ele>754.69930804197</ele>
        <time>2016-01-30T13:02:00Z</time>
      </trkpt>
      <trkpt lat="43.78693" lon="3.25638">
        <ele>754.69930804197</ele>
        <time>2016-01-30T13:02:05Z</time>
      </trkpt>
      <trkpt lat="43.78677" lon="3.25646">
        <ele>755.13514447528</ele>
        <time>2016-01-30T13:03:00Z</time>
      </trkpt>
      <trkpt lat="43.78655" lon="3.25659">
        <ele>756.04153616167</ele>
        <time>2016-01-30T13:04:17Z</time>
      </trkpt>
      <trkpt lat="43.78657" lon="3.25662">
        <ele>756.04153616167</ele>
        <time>2016-01-30T13:05:29Z</time>
      </trkpt>
      <trkpt lat="43.7866" lon="3.25673">
        <ele>757.83142009128</ele>
        <time>2016-01-30T13:07:23Z</time>
      </trkpt>
      <trkpt lat="43.78644" lon="3.25637">
        <ele>759.45810708978</ele>
        <time>2016-01-30T13:08:27Z</time>
      </trkpt>
      <trkpt lat="43.78627" lon="3.25642">
        <ele>760.96092997443</ele>
        <time>2016-01-30T13:08:52Z</time>
      </trkpt>
      <trkpt lat="43.78615" lon="3.25658">
        <ele>762.36217650356</ele>
        <time>2016-01-30T13:09:26Z</time>
      </trkpt>
      <trkpt lat="43.78616" lon="3.25658">
        <ele>762.36217650356</ele>
        <time>2016-01-30T13:09:27Z</time>
      </trkpt>
      <trkpt lat="43.78616" lon="3.25659">
        <ele>762.36217650356</ele>
        <time>2016-01-30T13:09:30Z</time>
      </trkpt>
      <trkpt lat="43.78607" lon="3.25668">
        <ele>763.74034555931</ele>
        <time>2016-01-30T13:32:05Z</time>
      </trkpt>
      <trkpt lat="43.78608" lon="3.25669">
        <ele>763.74034555931</ele>
        <time>2016-01-30T13:32:05Z</time>
      </trkpt>
      <trkpt lat="43.78591" lon="3.25675">
        <ele>764.69259533489</ele>
        <time>2016-01-30T13:33:54Z</time>
      </trkpt>
      <trkpt lat="43.78591" lon="3.25682">
        <ele>764.69259533489</ele>
        <time>2016-01-30T13:33:54Z</time>
      </trkpt>
      <trkpt lat="43.7859" lon="3.25691">
        <ele>765.38001765358</ele>
        <time>2016-01-30T13:34:10Z</time>
      </trkpt>
      <trkpt lat="43.78589" lon="3.25698">
        <ele>765.38001765358</ele>
        <time>2016-01-30T13:34:10Z</time>
      </trkpt>
      <trkpt lat="43.78573" lon="3.25752">
        <ele>765.90932016371</ele>
        <time>2016-01-30T13:35:07Z</time>
      </trkpt>
      <trkpt lat="43.78572" lon="3.25754">
        <ele>765.90932016371</ele>
        <time>2016-01-30T13:35:10Z</time>
      </trkpt>
      <trkpt lat="43.78571" lon="3.25762">
        <ele>765.90932016371</ele>
        <time>2016-01-30T13:35:35Z</time>
      </trkpt>
      <trkpt lat="43.78576" lon="3.25831">
        <ele>764.16044259991</ele>
        <time>2016-01-30T13:36:32Z</time>
      </trkpt>
      <trkpt lat="43.78597" lon="3.25913">
        <ele>761.92227771928</ele>
        <time>2016-01-30T13:38:15Z</time>
      </trkpt>
      <trkpt lat="43.78597" lon="3.25913">
        <ele>761.92227771928</ele>
        <time>2016-01-30T13:38:24Z</time>
      </trkpt>
      <trkpt lat="43.78596" lon="3.25921">
        <ele>761.92227771928</ele>
        <time>2016-01-30T13:39:30Z</time>
      </trkpt>
      <trkpt lat="43.78599" lon="3.25924">
        <ele>759.65747917162</ele>
        <time>2016-01-30T13:39:35Z</time>
      </trkpt>
      <trkpt lat="43.78599" lon="3.2594">
        <ele>757.69381777256</ele>
        <time>2016-01-30T13:40:00Z</time>
      </trkpt>
      <trkpt lat="43.78594" lon="3.2596">
        <ele>756.01698644152</ele>
        <time>2016-01-30T13:40:10Z</time>
      </trkpt>
      <trkpt lat="43.78594" lon="3.2596">
        <ele>756.01698644152</ele>
        <time>2016-01-30T13:40:15Z</time>
      </trkpt>
      <trkpt lat="43.78588" lon="3.25998">
        <ele>754.48309864996</ele>
        <time>2016-01-30T13:41:06Z</time>
      </trkpt>
      <trkpt lat="43.78589" lon="3.26009">
        <ele>754.48309864996</ele>
        <time>2016-01-30T13:41:06Z</time>
      </trkpt>
      <trkpt lat="43.78591" lon="3.26143">
        <ele>752.84300965463</ele>
        <time>2016-01-30T13:43:35Z</time>
      </trkpt>
      <trkpt lat="43.78599" lon="3.26162">
        <ele>751.28394922252</ele>
        <time>2016-01-30T13:44:38Z</time>
      </trkpt>
      <trkpt lat="43.78601" lon="3.26169">
        <ele>751.28394922252</ele>
        <time>2016-01-30T13:45:10Z</time>
      </trkpt>
      <trkpt lat="43.78601" lon="3.26165">
        <ele>751.28394922252</ele>
        <time>2016-01-30T13:45:15Z</time>
      </trkpt>
      <trkpt lat="43.78597" lon="3.26156">
        <ele>749.58990983875</ele>
        <time>2016-01-30T13:45:20Z</time>
      </trkpt>
      <trkpt lat="43.78595" lon="3.26149">
        <ele>749.58990983875</ele>
        <time>2016-01-30T13:45:25Z</time>
      </trkpt>
      <trkpt lat="43.78592" lon="3.26148">
        <ele>749.58990983875</ele>
        <time>2016-01-30T13:45:30Z</time>
      </trkpt>
      <trkpt lat="43.7859" lon="3.26145">
        <ele>748.06535663621</ele>
        <time>2016-01-30T13:45:35Z</time>
      </trkpt>
      <trkpt lat="43.78588" lon="3.2614">
        <ele>748.06535663621</ele>
        <time>2016-01-30T13:45:40Z</time>
      </trkpt>
      <trkpt lat="43.78589" lon="3.26133">
        <ele>748.06535663621</ele>
        <time>2016-01-30T13:45:45Z</time>
      </trkpt>
      <trkpt lat="43.78589" lon="3.26127">
        <ele>746.66028924167</ele>
        <time>2016-01-30T13:45:50Z</time>
      </trkpt>
      <trkpt lat="43.78589" lon="3.26121">
        <ele>746.66028924167</ele>
        <time>2016-01-30T13:45:55Z</time>
      </trkpt>
      <trkpt lat="43.78585" lon="3.26117">
        <ele>745.38551688294</ele>
        <time>2016-01-30T13:46:00Z</time>
      </trkpt>
      <trkpt lat="43.78585" lon="3.26111">
        <ele>745.38551688294</ele>
        <time>2016-01-30T13:46:05Z</time>
      </trkpt>
      <trkpt lat="43.78585" lon="3.26104">
        <ele>744.16404722949</ele>
        <time>2016-01-30T13:46:10Z</time>
      </trkpt>
      <trkpt lat="43.78586" lon="3.26096">
        <ele>744.16404722949</ele>
        <time>2016-01-30T13:46:15Z</time>
      </trkpt>
      <trkpt lat="43.78585" lon="3.26087">
        <ele>743.08274036409</ele>
        <time>2016-01-30T13:46:20Z</time>
      </trkpt>
      <trkpt lat="43.78579" lon="3.26079">
        <ele>743.08274036409</ele>
        <time>2016-01-30T13:46:25Z</time>
      </trkpt>
      <trkpt lat="43.7858" lon="3.26077">
        <ele>742.23591832206</ele>
        <time>2016-01-30T13:46:32Z</time>
      </trkpt>
      <trkpt lat="43.78581" lon="3.26076">
        <ele>742.23591832206</ele>
        <time>2016-01-30T13:46:35Z</time>
      </trkpt>
      <trkpt lat="43.78582" lon="3.26075">
        <ele>742.23591832206</ele>
        <time>2016-01-30T13:46:40Z</time>
      </trkpt>
      <trkpt lat="43.78583" lon="3.26074">
        <ele>742.23591832206</ele>
        <time>2016-01-30T13:46:50Z</time>
      </trkpt>
      <trkpt lat="43.78584" lon="3.26077">
        <ele>742.23591832206</ele>
        <time>2016-01-30T13:46:55Z</time>
      </trkpt>
      <trkpt lat="43.78584" lon="3.26082">
        <ele>741.81102199913</ele>
        <time>2016-01-30T13:47:00Z</time>
      </trkpt>
      <trkpt lat="43.78586" lon="3.26089">
        <ele>741.81102199913</ele>
        <time>2016-01-30T13:47:05Z</time>
      </trkpt>
      <trkpt lat="43.78585" lon="3.26099">
        <ele>741.51921620503</ele>
        <time>2016-01-30T13:47:10Z</time>
      </trkpt>
      <trkpt lat="43.78584" lon="3.26105">
        <ele>741.51921620503</ele>
        <time>2016-01-30T13:47:15Z</time>
      </trkpt>
      <trkpt lat="43.78584" lon="3.26113">
        <ele>741.25087167557</ele>
        <time>2016-01-30T13:47:20Z</time>
      </trkpt>
      <trkpt lat="43.78584" lon="3.26118">
        <ele>741.25087167557</ele>
        <time>2016-01-30T13:47:25Z</time>
      </trkpt>
      <trkpt lat="43.78582" lon="3.26123">
        <ele>741.25087167557</ele>
        <time>2016-01-30T13:47:30Z</time>
      </trkpt>
      <trkpt lat="43.78581" lon="3.26127">
        <ele>740.93301631834</ele>
        <time>2016-01-30T13:47:35Z</time>
      </trkpt>
      <trkpt lat="43.78578" lon="3.2613">
        <ele>740.93301631834</ele>
        <time>2016-01-30T13:47:40Z</time>
      </trkpt>
      <trkpt lat="43.78574" lon="3.26128">
        <ele>740.93301631834</ele>
        <time>2016-01-30T13:47:45Z</time>
      </trkpt>
      <trkpt lat="43.78573" lon="3.26127">
        <ele>740.93301631834</ele>
        <time>2016-01-30T13:47:51Z</time>
      </trkpt>
      <trkpt lat="43.78562" lon="3.26115">
        <ele>740.29627746403</ele>
        <time>2016-01-30T13:48:40Z</time>
      </trkpt>
      <trkpt lat="43.78551" lon="3.26117">
        <ele>739.46651706928</ele>
        <time>2016-01-30T13:49:00Z</time>
      </trkpt>
      <trkpt lat="43.7855" lon="3.26117">
        <ele>739.46651706928</ele>
        <time>2016-01-30T13:49:05Z</time>
      </trkpt>
      <trkpt lat="43.78534" lon="3.26117">
        <ele>738.47429518247</ele>
        <time>2016-01-30T13:49:43Z</time>
      </trkpt>
      <trkpt lat="43.7853" lon="3.26118">
        <ele>738.47429518247</ele>
        <time>2016-01-30T13:50:00Z</time>
      </trkpt>
      <trkpt lat="43.78495" lon="3.26127">
        <ele>736.75739929718</ele>
        <time>2016-01-30T13:51:05Z</time>
      </trkpt>
      <trkpt lat="43.78496" lon="3.26126">
        <ele>736.75739929718</ele>
        <time>2016-01-30T13:51:10Z</time>
      </trkpt>
      <trkpt lat="43.78487" lon="3.26126">
        <ele>734.66148972153</ele>
        <time>2016-01-30T13:52:03Z</time>
      </trkpt>
      <trkpt lat="43.78486" lon="3.26125">
        <ele>734.66148972153</ele>
        <time>2016-01-30T13:52:08Z</time>
      </trkpt>
      <trkpt lat="43.7847" lon="3.26126">
        <ele>732.04661289915</ele>
        <time>2016-01-30T13:53:00Z</time>
      </trkpt>
      <trkpt lat="43.78462" lon="3.26136">
        <ele>729.11587276968</ele>
        <time>2016-01-30T13:53:30Z</time>
      </trkpt>
      <trkpt lat="43.78458" lon="3.26139">
        <ele>729.11587276968</ele>
        <time>2016-01-30T14:09:15Z</time>
      </trkpt>
      <trkpt lat="43.78454" lon="3.26142">
        <ele>729.11587276968</ele>
        <time>2016-01-30T14:09:20Z</time>
      </trkpt>
      <trkpt lat="43.78447" lon="3.26147">
        <ele>722.75804487137</ele>
        <time>2016-01-30T14:09:30Z</time>
      </trkpt>
      <trkpt lat="43.78442" lon="3.26149">
        <ele>722.75804487137</ele>
        <time>2016-01-30T14:09:35Z</time>
      </trkpt>
      <trkpt lat="43.78433" lon="3.26156">
        <ele>716.80106929908</ele>
        <time>2016-01-30T14:09:45Z</time>
      </trkpt>
      <trkpt lat="43.78429" lon="3.26161">
        <ele>716.80106929908</ele>
        <time>2016-01-30T14:09:50Z</time>
      </trkpt>
      <trkpt lat="43.7842" lon="3.26168">
        <ele>711.21641527887</ele>
        <time>2016-01-30T14:10:00Z</time>
      </trkpt>
      <trkpt lat="43.78414" lon="3.2617">
        <ele>711.21641527887</ele>
        <time>2016-01-30T14:10:05Z</time>
      </trkpt>
      <trkpt lat="43.78405" lon="3.26182">
        <ele>705.84668519923</ele>
        <time>2016-01-30T14:10:20Z</time>
      </trkpt>
      <trkpt lat="43.78402" lon="3.26185">
        <ele>705.84668519923</ele>
        <time>2016-01-30T14:10:25Z</time>
      </trkpt>
      <trkpt lat="43.78398" lon="3.26193">
        <ele>700.71812945436</ele>
        <time>2016-01-30T14:10:35Z</time>
      </trkpt>
      <trkpt lat="43.78397" lon="3.26197">
        <ele>700.71812945436</ele>
        <time>2016-01-30T14:10:40Z</time>
      </trkpt>
      <trkpt lat="43.78398" lon="3.26205">
        <ele>695.81089395343</ele>
        <time>2016-01-30T14:10:50Z</time>
      </trkpt>
      <trkpt lat="43.78397" lon="3.26208">
        <ele>695.81089395343</ele>
        <time>2016-01-30T14:10:55Z</time>
      </trkpt>
      <trkpt lat="43.78397" lon="3.2621">
        <ele>695.81089395343</ele>
        <time>2016-01-30T14:11:05Z</time>
      </trkpt>
      <trkpt lat="43.78398" lon="3.26218">
        <ele>691.06244564213</ele>
        <time>2016-01-30T14:11:10Z</time>
      </trkpt>
      <trkpt lat="43.78397" lon="3.26229">
        <ele>691.06244564213</ele>
        <time>2016-01-30T14:11:20Z</time>
      </trkpt>
      <trkpt lat="43.78393" lon="3.26234">
        <ele>686.74555949108</ele>
        <time>2016-01-30T14:11:25Z</time>
      </trkpt>
      <trkpt lat="43.78389" lon="3.26243">
        <ele>686.74555949108</ele>
        <time>2016-01-30T14:11:35Z</time>
      </trkpt>
      <trkpt lat="43.7839" lon="3.26248">
        <ele>682.7079461809</ele>
        <time>2016-01-30T14:11:40Z</time>
      </trkpt>
      <trkpt lat="43.78388" lon="3.26256">
        <ele>682.7079461809</ele>
        <time>2016-01-30T14:11:50Z</time>
      </trkpt>
      <trkpt lat="43.78387" lon="3.26264">
        <ele>678.83623291743</ele>
        <time>2016-01-30T14:11:55Z</time>
      </trkpt>
      <trkpt lat="43.78385" lon="3.2627">
        <ele>678.83623291743</ele>
        <time>2016-01-30T14:12:00Z</time>
      </trkpt>
      <trkpt lat="43.78383" lon="3.26276">
        <ele>675.32723284495</ele>
        <time>2016-01-30T14:12:05Z</time>
      </trkpt>
      <trkpt lat="43.78382" lon="3.26282">
        <ele>675.32723284495</ele>
        <time>2016-01-30T14:12:10Z</time>
      </trkpt>
      <trkpt lat="43.78381" lon="3.26291">
        <ele>672.1313980076</ele>
        <time>2016-01-30T14:12:15Z</time>
      </trkpt>
      <trkpt lat="43.78379" lon="3.26298">
        <ele>672.1313980076</ele>
        <time>2016-01-30T14:12:20Z</time>
      </trkpt>
      <trkpt lat="43.78378" lon="3.26306">
        <ele>669.20163930983</ele>
        <time>2016-01-30T14:12:25Z</time>
      </trkpt>
      <trkpt lat="43.78377" lon="3.26313">
        <ele>669.20163930983</ele>
        <time>2016-01-30T14:12:30Z</time>
      </trkpt>
      <trkpt lat="43.78375" lon="3.26321">
        <ele>666.43564180359</ele>
        <time>2016-01-30T14:12:35Z</time>
      </trkpt>
      <trkpt lat="43.78373" lon="3.2633">
        <ele>666.43564180359</ele>
        <time>2016-01-30T14:12:40Z</time>
      </trkpt>
      <trkpt lat="43.78371" lon="3.26336">
        <ele>663.75227472161</ele>
        <time>2016-01-30T14:12:45Z</time>
      </trkpt>
      <trkpt lat="43.7837" lon="3.26342">
        <ele>663.75227472161</ele>
        <time>2016-01-30T14:12:50Z</time>
      </trkpt>
      <trkpt lat="43.78369" lon="3.26348">
        <ele>661.27761979852</ele>
        <time>2016-01-30T14:12:55Z</time>
      </trkpt>
      <trkpt lat="43.78368" lon="3.26353">
        <ele>661.27761979852</ele>
        <time>2016-01-30T14:13:00Z</time>
      </trkpt>
      <trkpt lat="43.78368" lon="3.2636">
        <ele>661.27761979852</ele>
        <time>2016-01-30T14:13:05Z</time>
      </trkpt>
      <trkpt lat="43.78368" lon="3.26369">
        <ele>658.86825364659</ele>
        <time>2016-01-30T14:13:10Z</time>
      </trkpt>
      <trkpt lat="43.78366" lon="3.2638">
        <ele>658.86825364659</ele>
        <time>2016-01-30T14:13:15Z</time>
      </trkpt>
      <trkpt lat="43.78369" lon="3.26384">
        <ele>656.62144020449</ele>
        <time>2016-01-30T14:13:20Z</time>
      </trkpt>
      <trkpt lat="43.78372" lon="3.26388">
        <ele>656.62144020449</ele>
        <time>2016-01-30T14:13:25Z</time>
      </trkpt>
      <trkpt lat="43.78374" lon="3.26395">
        <ele>654.65543695327</ele>
        <time>2016-01-30T14:13:30Z</time>
      </trkpt>
      <trkpt lat="43.78377" lon="3.26401">
        <ele>654.65543695327</ele>
        <time>2016-01-30T14:13:35Z</time>
      </trkpt>
      <trkpt lat="43.78379" lon="3.26406">
        <ele>652.93470411088</ele>
        <time>2016-01-30T14:13:40Z</time>
      </trkpt>
      <trkpt lat="43.78378" lon="3.26429">
        <ele>651.4110197949</ele>
        <time>2016-01-30T14:14:01Z</time>
      </trkpt>
      <trkpt lat="43.78378" lon="3.26434">
        <ele>651.4110197949</ele>
        <time>2016-01-30T14:14:05Z</time>
      </trkpt>
      <trkpt lat="43.78376" lon="3.26446">
        <ele>649.93809866073</ele>
        <time>2016-01-30T14:14:23Z</time>
      </trkpt>
      <trkpt lat="43.78365" lon="3.26476">
        <ele>648.45215824624</ele>
        <time>2016-01-30T14:14:50Z</time>
      </trkpt>
      <trkpt lat="43.78365" lon="3.26477">
        <ele>648.45215824624</ele>
        <time>2016-01-30T14:14:55Z</time>
      </trkpt>
      <trkpt lat="43.78369" lon="3.26478">
        <ele>648.45215824624</ele>
        <time>2016-01-30T14:15:05Z</time>
      </trkpt>
      <trkpt lat="43.78373" lon="3.26479">
        <ele>648.45215824624</ele>
        <time>2016-01-30T14:15:10Z</time>
      </trkpt>
      <trkpt lat="43.78376" lon="3.26479">
        <ele>647.25427885389</ele>
        <time>2016-01-30T14:15:15Z</time>
      </trkpt>
      <trkpt lat="43.78379" lon="3.26479">
        <ele>647.25427885389</ele>
        <time>2016-01-30T14:15:20Z</time>
      </trkpt>
      <trkpt lat="43.78384" lon="3.2648">
        <ele>647.25427885389</ele>
        <time>2016-01-30T14:15:25Z</time>
      </trkpt>
      <trkpt lat="43.78389" lon="3.26481">
        <ele>646.44956460533</ele>
        <time>2016-01-30T14:15:30Z</time>
      </trkpt>
      <trkpt lat="43.78392" lon="3.26478">
        <ele>646.44956460533</ele>
        <time>2016-01-30T14:15:35Z</time>
      </trkpt>
      <trkpt lat="43.78397" lon="3.26477">
        <ele>646.44956460533</ele>
        <time>2016-01-30T14:15:40Z</time>
      </trkpt>
      <trkpt lat="43.784" lon="3.26474">
        <ele>646.1341987576</ele>
        <time>2016-01-30T14:15:45Z</time>
      </trkpt>
      <trkpt lat="43.78401" lon="3.26474">
        <ele>646.1341987576</ele>
        <time>2016-01-30T14:15:55Z</time>
      </trkpt>
      <trkpt lat="43.7841" lon="3.2647">
        <ele>646.43908485474</ele>
        <time>2016-01-30T14:16:15Z</time>
      </trkpt>
      <trkpt lat="43.78414" lon="3.26471">
        <ele>646.43908485474</ele>
        <time>2016-01-30T14:17:01Z</time>
      </trkpt>
      <trkpt lat="43.7842" lon="3.2647">
        <ele>647.44048732585</ele>
        <time>2016-01-30T14:17:05Z</time>
      </trkpt>
      <trkpt lat="43.7843" lon="3.2645">
        <ele>648.77475874013</ele>
        <time>2016-01-30T14:17:29Z</time>
      </trkpt>
      <trkpt lat="43.78431" lon="3.26448">
        <ele>648.77475874013</ele>
        <time>2016-01-30T14:17:30Z</time>
      </trkpt>
      <trkpt lat="43.78434" lon="3.26444">
        <ele>648.77475874013</ele>
        <time>2016-01-30T14:17:35Z</time>
      </trkpt>
      <trkpt lat="43.78437" lon="3.26444">
        <ele>650.36343898872</ele>
        <time>2016-01-30T14:17:40Z</time>
      </trkpt>
      <trkpt lat="43.7844" lon="3.26447">
        <ele>650.36343898872</ele>
        <time>2016-01-30T14:17:45Z</time>
      </trkpt>
      <trkpt lat="43.78441" lon="3.26452">
        <ele>650.36343898872</ele>
        <time>2016-01-30T14:17:50Z</time>
      </trkpt>
      <trkpt lat="43.7844" lon="3.26457">
        <ele>652.29167920984</ele>
        <time>2016-01-30T14:17:55Z</time>
      </trkpt>
      <trkpt lat="43.78442" lon="3.26471">
        <ele>654.43573800014</ele>
        <time>2016-01-30T14:18:20Z</time>
      </trkpt>
      <trkpt lat="43.78446" lon="3.26493">
        <ele>656.75251628271</ele>
        <time>2016-01-30T14:19:04Z</time>
      </trkpt>
      <trkpt lat="43.78455" lon="3.26502">
        <ele>659.02879561328</ele>
        <time>2016-01-30T14:19:25Z</time>
      </trkpt>
      <trkpt lat="43.78461" lon="3.2652">
        <ele>661.35551781092</ele>
        <time>2016-01-30T14:19:45Z</time>
      </trkpt>
      <trkpt lat="43.78463" lon="3.26522">
        <ele>661.35551781092</ele>
        <time>2016-01-30T14:19:45Z</time>
      </trkpt>
      <trkpt lat="43.78484" lon="3.26544">
        <ele>663.75934655873</ele>
        <time>2016-01-30T14:20:23Z</time>
      </trkpt>
      <trkpt lat="43.78485" lon="3.26546">
        <ele>663.75934655873</ele>
        <time>2016-01-30T14:20:23Z</time>
      </trkpt>
      <trkpt lat="43.7851" lon="3.26569">
        <ele>666.43791747134</ele>
        <time>2016-01-30T14:20:50Z</time>
      </trkpt>
      <trkpt lat="43.78515" lon="3.26571">
        <ele>666.43791747134</ele>
        <time>2016-01-30T14:20:55Z</time>
      </trkpt>
      <trkpt lat="43.78516" lon="3.26573">
        <ele>666.43791747134</ele>
        <time>2016-01-30T14:21:00Z</time>
      </trkpt>
      <trkpt lat="43.78521" lon="3.26571">
        <ele>669.06942478076</ele>
        <time>2016-01-30T14:21:05Z</time>
      </trkpt>
      <trkpt lat="43.78527" lon="3.2657">
        <ele>669.06942478076</ele>
        <time>2016-01-30T14:21:10Z</time>
      </trkpt>
      <trkpt lat="43.78531" lon="3.26566">
        <ele>671.61549232871</ele>
        <time>2016-01-30T14:21:15Z</time>
      </trkpt>
      <trkpt lat="43.78536" lon="3.26563">
        <ele>671.61549232871</ele>
        <time>2016-01-30T14:21:20Z</time>
      </trkpt>
      <trkpt lat="43.78539" lon="3.26562">
        <ele>671.61549232871</ele>
        <time>2016-01-30T14:21:25Z</time>
      </trkpt>
      <trkpt lat="43.78544" lon="3.26561">
        <ele>674.12754642742</ele>
        <time>2016-01-30T14:21:30Z</time>
      </trkpt>
      <trkpt lat="43.78547" lon="3.26561">
        <ele>674.12754642742</ele>
        <time>2016-01-30T14:21:35Z</time>
      </trkpt>
      <trkpt lat="43.7855" lon="3.2656">
        <ele>674.12754642742</ele>
        <time>2016-01-30T14:21:40Z</time>
      </trkpt>
      <trkpt lat="43.7855" lon="3.2656">
        <ele>674.12754642742</ele>
        <time>2016-01-30T14:21:45Z</time>
      </trkpt>
      <trkpt lat="43.78573" lon="3.26588">
        <ele>676.61039159056</ele>
        <time>2016-01-30T14:25:25Z</time>
      </trkpt>
      <trkpt lat="43.78579" lon="3.26591">
        <ele>676.61039159056</ele>
        <time>2016-01-30T14:25:50Z</time>
      </trkpt>
      <trkpt lat="43.7858" lon="3.266">
        <ele>678.69417985146</ele>
        <time>2016-01-30T14:26:06Z</time>
      </trkpt>
      <trkpt lat="43.78582" lon="3.26605">
        <ele>678.69417985146</ele>
        <time>2016-01-30T14:26:10Z</time>
      </trkpt>
      <trkpt lat="43.78585" lon="3.26609">
        <ele>678.69417985146</ele>
        <time>2016-01-30T14:26:16Z</time>
      </trkpt>
      <trkpt lat="43.78589" lon="3.26611">
        <ele>680.49882524422</ele>
        <time>2016-01-30T14:26:20Z</time>
      </trkpt>
      <trkpt lat="43.78617" lon="3.26663">
        <ele>682.13654113177</ele>
        <time>2016-01-30T14:28:10Z</time>
      </trkpt>
      <trkpt lat="43.78614" lon="3.26664">
        <ele>682.13654113177</ele>
        <time>2016-01-30T14:28:17Z</time>
      </trkpt>
      <trkpt lat="43.78607" lon="3.2667">
        <ele>682.21333618198</ele>
        <time>2016-01-30T14:28:21Z</time>
      </trkpt>
      <trkpt lat="43.78604" lon="3.26674">
        <ele>682.21333618198</ele>
        <time>2016-01-30T14:28:25Z</time>
      </trkpt>
      <trkpt lat="43.78604" lon="3.26677">
        <ele>682.21333618198</ele>
        <time>2016-01-30T14:28:30Z</time>
      </trkpt>
      <trkpt lat="43.78576" lon="3.26698">
        <ele>681.79133371133</ele>
        <time>2016-01-30T14:29:02Z</time>
      </trkpt>
      <trkpt lat="43.78574" lon="3.26698">
        <ele>681.79133371133</ele>
        <time>2016-01-30T14:29:17Z</time>
      </trkpt>
      <trkpt lat="43.78553" lon="3.26704">
        <ele>681.23666760491</ele>
        <time>2016-01-30T14:29:50Z</time>
      </trkpt>
      <trkpt lat="43.78522" lon="3.26733">
        <ele>680.58661209099</ele>
        <time>2016-01-30T14:30:05Z</time>
      </trkpt>
      <trkpt lat="43.78522" lon="3.26739">
        <ele>680.58661209099</ele>
        <time>2016-01-30T14:30:18Z</time>
      </trkpt>
      <trkpt lat="43.7852" lon="3.26753">
        <ele>679.81860583927</ele>
        <time>2016-01-30T14:30:55Z</time>
      </trkpt>
      <trkpt lat="43.78421" lon="3.2683">
        <ele>679.09968089113</ele>
        <time>2016-01-30T14:32:35Z</time>
      </trkpt>
      <trkpt lat="43.78422" lon="3.26838">
        <ele>679.09968089113</ele>
        <time>2016-01-30T14:32:40Z</time>
      </trkpt>
      <trkpt lat="43.78419" lon="3.26846">
        <ele>678.32530322615</ele>
        <time>2016-01-30T14:32:45Z</time>
      </trkpt>
      <trkpt lat="43.7841" lon="3.26856">
        <ele>677.48546332015</ele>
        <time>2016-01-30T14:32:50Z</time>
      </trkpt>
      <trkpt lat="43.78406" lon="3.26866">
        <ele>677.48546332015</ele>
        <time>2016-01-30T14:32:55Z</time>
      </trkpt>
      <trkpt lat="43.78401" lon="3.26871">
        <ele>676.64333129311</ele>
        <time>2016-01-30T14:33:00Z</time>
      </trkpt>
      <trkpt lat="43.78397" lon="3.26876">
        <ele>676.64333129311</ele>
        <time>2016-01-30T14:33:05Z</time>
      </trkpt>
      <trkpt lat="43.78396" lon="3.26881">
        <ele>675.85763095636</ele>
        <time>2016-01-30T14:33:10Z</time>
      </trkpt>
      <trkpt lat="43.7831" lon="3.27004">
        <ele>674.64957284848</ele>
        <time>2016-01-30T14:34:55Z</time>
      </trkpt>
      <trkpt lat="43.78308" lon="3.27013">
        <ele>674.64957284848</ele>
        <time>2016-01-30T14:35:09Z</time>
      </trkpt>
      <trkpt lat="43.78305" lon="3.27023">
        <ele>673.2686101492</ele>
        <time>2016-01-30T14:35:10Z</time>
      </trkpt>
      <trkpt lat="43.78291" lon="3.27094">
        <ele>670.95212266775</ele>
        <time>2016-01-30T14:36:05Z</time>
      </trkpt>
      <trkpt lat="43.7829" lon="3.27101">
        <ele>670.95212266775</ele>
        <time>2016-01-30T14:36:10Z</time>
      </trkpt>
      <trkpt lat="43.78288" lon="3.27107">
        <ele>668.65352742183</ele>
        <time>2016-01-30T14:36:21Z</time>
      </trkpt>
      <trkpt lat="43.78287" lon="3.2711">
        <ele>668.65352742183</ele>
        <time>2016-01-30T14:36:21Z</time>
      </trkpt>
      <trkpt lat="43.78285" lon="3.27124">
        <ele>666.42039970462</ele>
        <time>2016-01-30T14:36:32Z</time>
      </trkpt>
      <trkpt lat="43.78271" lon="3.27174">
        <ele>663.47526948152</ele>
        <time>2016-01-30T14:37:11Z</time>
      </trkpt>
      <trkpt lat="43.78268" lon="3.27191">
        <ele>660.32476367873</ele>
        <time>2016-01-30T14:37:28Z</time>
      </trkpt>
      <trkpt lat="43.782" lon="3.27305">
        <ele>654.10991326085</ele>
        <time>2016-01-30T14:38:55Z</time>
      </trkpt>
      <trkpt lat="43.78152" lon="3.27381">
        <ele>647.86832260126</ele>
        <time>2016-01-30T14:40:00Z</time>
      </trkpt>
      <trkpt lat="43.78146" lon="3.27391">
        <ele>642.23839318984</ele>
        <time>2016-01-30T14:40:50Z</time>
      </trkpt>
      <trkpt lat="43.781" lon="3.27446">
        <ele>637.08926027214</ele>
        <time>2016-01-30T14:40:55Z</time>
      </trkpt>
      <trkpt lat="43.78095" lon="3.27459">
        <ele>632.0531985626</ele>
        <time>2016-01-30T14:41:02Z</time>
      </trkpt>
      <trkpt lat="43.78093" lon="3.27464">
        <ele>632.0531985626</ele>
        <time>2016-01-30T14:41:05Z</time>
      </trkpt>
      <trkpt lat="43.78062" lon="3.27513">
        <ele>627.74014494079</ele>
        <time>2016-01-30T14:41:50Z</time>
      </trkpt>
      <trkpt lat="43.78055" lon="3.27522">
        <ele>623.90598818975</ele>
        <time>2016-01-30T14:41:55Z</time>
      </trkpt>
      <trkpt lat="43.78051" lon="3.27531">
        <ele>623.90598818975</ele>
        <time>2016-01-30T14:42:03Z</time>
      </trkpt>
      <trkpt lat="43.7803" lon="3.27599">
        <ele>621.18766410919</ele>
        <time>2016-01-30T14:43:00Z</time>
      </trkpt>
      <trkpt lat="43.78023" lon="3.2761">
        <ele>618.88938079508</ele>
        <time>2016-01-30T14:43:14Z</time>
      </trkpt>
      <trkpt lat="43.78022" lon="3.2761">
        <ele>618.88938079508</ele>
        <time>2016-01-30T14:43:15Z</time>
      </trkpt>
      <trkpt lat="43.78004" lon="3.27689">
        <ele>616.78297993088</ele>
        <time>2016-01-30T14:44:15Z</time>
      </trkpt>
      <trkpt lat="43.77985" lon="3.27757">
        <ele>614.85805950592</ele>
        <time>2016-01-30T14:45:17Z</time>
      </trkpt>
      <trkpt lat="43.7797" lon="3.27782">
        <ele>612.70074449413</ele>
        <time>2016-01-30T14:46:01Z</time>
      </trkpt>
      <trkpt lat="43.77968" lon="3.27792">
        <ele>612.70074449413</ele>
        <time>2016-01-30T14:47:00Z</time>
      </trkpt>
      <trkpt lat="43.77968" lon="3.27787">
        <ele>609.48125755323</ele>
        <time>2016-01-30T14:47:30Z</time>
      </trkpt>
      <trkpt lat="43.77974" lon="3.27782">
        <ele>609.48125755323</ele>
        <time>2016-01-30T14:47:41Z</time>
      </trkpt>
      <trkpt lat="43.78018" lon="3.27648">
        <ele>606.75373715297</ele>
        <time>2016-01-30T14:50:05Z</time>
      </trkpt>
      <trkpt lat="43.78057" lon="3.27547">
        <ele>605.29366036518</ele>
        <time>2016-01-30T14:51:30Z</time>
      </trkpt>
      <trkpt lat="43.78064" lon="3.27528">
        <ele>604.27379541758</ele>
        <time>2016-01-30T14:51:43Z</time>
      </trkpt>
      <trkpt lat="43.78118" lon="3.27416">
        <ele>602.78214283915</ele>
        <time>2016-01-30T14:53:05Z</time>
      </trkpt>
      <trkpt lat="43.7812" lon="3.27409">
        <ele>602.78214283915</ele>
        <time>2016-01-30T14:53:10Z</time>
      </trkpt>
      <trkpt lat="43.7812" lon="3.27402">
        <ele>601.50242234407</ele>
        <time>2016-01-30T14:53:15Z</time>
      </trkpt>
      <trkpt lat="43.78123" lon="3.27395">
        <ele>601.50242234407</ele>
        <time>2016-01-30T14:53:20Z</time>
      </trkpt>
      <trkpt lat="43.78125" lon="3.27391">
        <ele>600.39004712587</ele>
        <time>2016-01-30T14:53:25Z</time>
      </trkpt>
      <trkpt lat="43.78129" lon="3.27384">
        <ele>600.39004712587</ele>
        <time>2016-01-30T14:53:30Z</time>
      </trkpt>
      <trkpt lat="43.7813" lon="3.27383">
        <ele>600.39004712587</ele>
        <time>2016-01-30T14:53:38Z</time>
      </trkpt>
      <trkpt lat="43.78138" lon="3.27365">
        <ele>598.92751846411</ele>
        <time>2016-01-30T14:53:45Z</time>
      </trkpt>
      <trkpt lat="43.78148" lon="3.27344">
        <ele>597.24146270519</ele>
        <time>2016-01-30T14:54:01Z</time>
      </trkpt>
      <trkpt lat="43.7815" lon="3.27338">
        <ele>597.24146270519</ele>
        <time>2016-01-30T14:54:05Z</time>
      </trkpt>
      <trkpt lat="43.7816" lon="3.27315">
        <ele>595.34882471159</ele>
        <time>2016-01-30T14:54:23Z</time>
      </trkpt>
      <trkpt lat="43.78161" lon="3.27312">
        <ele>595.34882471159</ele>
        <time>2016-01-30T14:54:25Z</time>
      </trkpt>
      <trkpt lat="43.78169" lon="3.27291">
        <ele>593.56839774971</ele>
        <time>2016-01-30T14:54:39Z</time>
      </trkpt>
      <trkpt lat="43.7817" lon="3.2729">
        <ele>593.56839774971</ele>
        <time>2016-01-30T14:54:47Z</time>
      </trkpt>
      <trkpt lat="43.78176" lon="3.27262">
        <ele>592.13748576447</ele>
        <time>2016-01-30T14:55:00Z</time>
      </trkpt>
      <trkpt lat="43.7818" lon="3.27239">
        <ele>590.98665426056</ele>
        <time>2016-01-30T14:55:17Z</time>
      </trkpt>
      <trkpt lat="43.78176" lon="3.27201">
        <ele>590.13715648463</ele>
        <time>2016-01-30T14:55:30Z</time>
      </trkpt>
      <trkpt lat="43.78168" lon="3.27167">
        <ele>589.57893443455</ele>
        <time>2016-01-30T14:55:50Z</time>
      </trkpt>
      <trkpt lat="43.78163" lon="3.27157">
        <ele>589.20090476475</ele>
        <time>2016-01-30T14:55:58Z</time>
      </trkpt>
      <trkpt lat="43.78095" lon="3.27116">
        <ele>587.38641393548</ele>
        <time>2016-01-30T14:59:25Z</time>
      </trkpt>
      <trkpt lat="43.78095" lon="3.27116">
        <ele>587.38641393548</ele>
        <time>2016-01-30T14:59:30Z</time>
      </trkpt>
      <trkpt lat="43.78086" lon="3.2713">
        <ele>585.45171690357</ele>
        <time>2016-01-30T15:00:16Z</time>
      </trkpt>
      <trkpt lat="43.78096" lon="3.27181">
        <ele>583.29085124046</ele>
        <time>2016-01-30T15:00:50Z</time>
      </trkpt>
      <trkpt lat="43.78045" lon="3.27252">
        <ele>581.02845297479</ele>
        <time>2016-01-30T15:02:22Z</time>
      </trkpt>
      <trkpt lat="43.78025" lon="3.27271">
        <ele>583.88882189892</ele>
        <time>2016-01-30T15:02:59Z</time>
      </trkpt>
      <trkpt lat="43.78007" lon="3.27271">
        <ele>586.53206812766</ele>
        <time>2016-01-30T15:03:26Z</time>
      </trkpt>
      <trkpt lat="43.78008" lon="3.27268">
        <ele>586.53206812766</ele>
        <time>2016-01-30T15:03:27Z</time>
      </trkpt>
      <trkpt lat="43.78009" lon="3.27267">
        <ele>586.53206812766</ele>
        <time>2016-01-30T15:03:34Z</time>
      </trkpt>
      <trkpt lat="43.78013" lon="3.27255">
        <ele>589.05041279951</ele>
        <time>2016-01-30T15:03:47Z</time>
      </trkpt>
      <trkpt lat="43.78013" lon="3.27255">
        <ele>589.05041279951</ele>
        <time>2016-01-30T15:04:00Z</time>
      </trkpt>
      <trkpt lat="43.77977" lon="3.27247">
        <ele>589.7437325486</ele>
        <time>2016-01-30T15:05:00Z</time>
      </trkpt>
      <trkpt lat="43.77971" lon="3.27266">
        <ele>590.21153277507</ele>
        <time>2016-01-30T15:05:40Z</time>
      </trkpt>
      <trkpt lat="43.77964" lon="3.27269">
        <ele>590.21153277507</ele>
        <time>2016-01-30T15:06:00Z</time>
      </trkpt>
      <trkpt lat="43.77958" lon="3.27273">
        <ele>590.12697936173</ele>
        <time>2016-01-30T15:06:08Z</time>
      </trkpt>
      <trkpt lat="43.77945" lon="3.27284">
        <ele>589.28665945386</ele>
        <time>2016-01-30T15:06:32Z</time>
      </trkpt>
      <trkpt lat="43.77941" lon="3.27284">
        <ele>589.28665945386</ele>
        <time>2016-01-30T15:06:33Z</time>
      </trkpt>
      <trkpt lat="43.77921" lon="3.27283">
        <ele>587.45841605184</ele>
        <time>2016-01-30T15:07:02Z</time>
      </trkpt>
      <trkpt lat="43.7791" lon="3.27286">
        <ele>585.10757348217</ele>
        <time>2016-01-30T15:07:18Z</time>
      </trkpt>
      <trkpt lat="43.77909" lon="3.27286">
        <ele>585.10757348217</ele>
        <time>2016-01-30T15:07:19Z</time>
      </trkpt>
      <trkpt lat="43.77892" lon="3.27288">
        <ele>582.23353969288</ele>
        <time>2016-01-30T15:07:34Z</time>
      </trkpt>
      <trkpt lat="43.77885" lon="3.273">
        <ele>578.73089895833</ele>
        <time>2016-01-30T15:07:53Z</time>
      </trkpt>
      <trkpt lat="43.77847" lon="3.27315">
        <ele>574.09884451938</ele>
        <time>2016-01-30T15:08:19Z</time>
      </trkpt>
      <trkpt lat="43.77844" lon="3.27317">
        <ele>574.09884451938</ele>
        <time>2016-01-30T15:08:22Z</time>
      </trkpt>
      <trkpt lat="43.77817" lon="3.27351">
        <ele>567.53488960124</ele>
        <time>2016-01-30T15:09:00Z</time>
      </trkpt>
      <trkpt lat="43.77816" lon="3.27353">
        <ele>567.53488960124</ele>
        <time>2016-01-30T15:09:05Z</time>
      </trkpt>
      <trkpt lat="43.77809" lon="3.27361">
        <ele>560.67795856188</ele>
        <time>2016-01-30T15:09:18Z</time>
      </trkpt>
      <trkpt lat="43.77787" lon="3.27431">
        <ele>551.42931018659</ele>
        <time>2016-01-30T15:10:05Z</time>
      </trkpt>
      <trkpt lat="43.77786" lon="3.27443">
        <ele>551.42931018659</ele>
        <time>2016-01-30T15:10:21Z</time>
      </trkpt>
      <trkpt lat="43.77782" lon="3.27448">
        <ele>542.27852023305</ele>
        <time>2016-01-30T15:10:23Z</time>
      </trkpt>
      <trkpt lat="43.77775" lon="3.27463">
        <ele>533.64340488817</ele>
        <time>2016-01-30T15:10:34Z</time>
      </trkpt>
      <trkpt lat="43.77755" lon="3.27487">
        <ele>524.99539812749</ele>
        <time>2016-01-30T15:10:52Z</time>
      </trkpt>
      <trkpt lat="43.77745" lon="3.27505">
        <ele>516.7225275463</ele>
        <time>2016-01-30T15:11:07Z</time>
      </trkpt>
      <trkpt lat="43.77743" lon="3.27507">
        <ele>516.7225275463</ele>
        <time>2016-01-30T15:11:15Z</time>
      </trkpt>
      <trkpt lat="43.77735" lon="3.27525">
        <ele>508.6566935193</ele>
        <time>2016-01-30T15:11:24Z</time>
      </trkpt>
      <trkpt lat="43.77735" lon="3.27528">
        <ele>508.6566935193</ele>
        <time>2016-01-30T15:11:27Z</time>
      </trkpt>
      <trkpt lat="43.77724" lon="3.27568">
        <ele>500.17119401265</ele>
        <time>2016-01-30T15:11:59Z</time>
      </trkpt>
      <trkpt lat="43.77723" lon="3.27575">
        <ele>500.17119401265</ele>
        <time>2016-01-30T15:11:59Z</time>
      </trkpt>
      <trkpt lat="43.77729" lon="3.27621">
        <ele>490.62540211199</ele>
        <time>2016-01-30T15:12:38Z</time>
      </trkpt>
      <trkpt lat="43.77725" lon="3.27641">
        <ele>481.34712926</ele>
        <time>2016-01-30T15:12:54Z</time>
      </trkpt>
      <trkpt lat="43.77721" lon="3.27659">
        <ele>472.44670972414</ele>
        <time>2016-01-30T15:13:04Z</time>
      </trkpt>
      <trkpt lat="43.77719" lon="3.27686">
        <ele>463.50044811571</ele>
        <time>2016-01-30T15:13:22Z</time>
      </trkpt>
      <trkpt lat="43.77709" lon="3.27719">
        <ele>454.4018170268</ele>
        <time>2016-01-30T15:13:56Z</time>
      </trkpt>
      <trkpt lat="43.77707" lon="3.27787">
        <ele>444.50372188639</ele>
        <time>2016-01-30T15:14:56Z</time>
      </trkpt>
      <trkpt lat="43.77711" lon="3.27803">
        <ele>435.22639059755</ele>
        <time>2016-01-30T15:15:06Z</time>
      </trkpt>
      <trkpt lat="43.77711" lon="3.27808">
        <ele>435.22639059755</ele>
        <time>2016-01-30T15:15:09Z</time>
      </trkpt>
      <trkpt lat="43.77714" lon="3.27823">
        <ele>426.55903983077</ele>
        <time>2016-01-30T15:15:22Z</time>
      </trkpt>
      <trkpt lat="43.77716" lon="3.27831">
        <ele>426.55903983077</ele>
        <time>2016-01-30T15:15:27Z</time>
      </trkpt>
      <trkpt lat="43.77724" lon="3.27846">
        <ele>418.4955579381</ele>
        <time>2016-01-30T15:15:39Z</time>
      </trkpt>
      <trkpt lat="43.77732" lon="3.27886">
        <ele>410.89543894102</ele>
        <time>2016-01-30T15:16:01Z</time>
      </trkpt>
      <trkpt lat="43.77732" lon="3.2791">
        <ele>403.77084324152</ele>
        <time>2016-01-30T15:16:19Z</time>
      </trkpt>
      <trkpt lat="43.77723" lon="3.27933">
        <ele>396.69068440547</ele>
        <time>2016-01-30T15:16:53Z</time>
      </trkpt>
      <trkpt lat="43.77721" lon="3.27929">
        <ele>396.69068440547</ele>
        <time>2016-01-30T15:16:57Z</time>
      </trkpt>
      <trkpt lat="43.7772" lon="3.27923">
        <ele>396.69068440547</ele>
        <time>2016-01-30T15:17:02Z</time>
      </trkpt>
      <trkpt lat="43.77719" lon="3.27922">
        <ele>390.32721008778</ele>
        <time>2016-01-30T15:17:12Z</time>
      </trkpt>
      <trkpt lat="43.7772" lon="3.27919">
        <ele>390.32721008778</ele>
        <time>2016-01-30T15:17:17Z</time>
      </trkpt>
      <trkpt lat="43.77717" lon="3.27906">
        <ele>384.92108549801</ele>
        <time>2016-01-30T15:17:27Z</time>
      </trkpt>
      <trkpt lat="43.77714" lon="3.27899">
        <ele>384.92108549801</ele>
        <time>2016-01-30T15:17:32Z</time>
      </trkpt>
      <trkpt lat="43.77711" lon="3.27886">
        <ele>380.2490679217</ele>
        <time>2016-01-30T15:17:42Z</time>
      </trkpt>
      <trkpt lat="43.7771" lon="3.27877">
        <ele>380.2490679217</ele>
        <time>2016-01-30T15:17:47Z</time>
      </trkpt>
      <trkpt lat="43.77709" lon="3.2787">
        <ele>376.22663215669</ele>
        <time>2016-01-30T15:17:52Z</time>
      </trkpt>
      <trkpt lat="43.77708" lon="3.27863">
        <ele>376.22663215669</ele>
        <time>2016-01-30T15:17:57Z</time>
      </trkpt>
      <trkpt lat="43.77706" lon="3.27856">
        <ele>372.85727223259</ele>
        <time>2016-01-30T15:18:02Z</time>
      </trkpt>
      <trkpt lat="43.77707" lon="3.27848">
        <ele>372.85727223259</ele>
        <time>2016-01-30T15:18:07Z</time>
      </trkpt>
      <trkpt lat="43.77705" lon="3.27841">
        <ele>370.09834123743</ele>
        <time>2016-01-30T15:18:12Z</time>
      </trkpt>
      <trkpt lat="43.77702" lon="3.27833">
        <ele>370.09834123743</ele>
        <time>2016-01-30T15:18:17Z</time>
      </trkpt>
      <trkpt lat="43.777" lon="3.27826">
        <ele>367.97832821944</ele>
        <time>2016-01-30T15:18:22Z</time>
      </trkpt>
      <trkpt lat="43.777" lon="3.27821">
        <ele>367.97832821944</ele>
        <time>2016-01-30T15:18:27Z</time>
      </trkpt>
      <trkpt lat="43.777" lon="3.2782">
        <ele>367.97832821944</ele>
        <time>2016-01-30T15:18:32Z</time>
      </trkpt>
      <trkpt lat="43.77696" lon="3.27831">
        <ele>366.89930027837</ele>
        <time>2016-01-30T15:19:02Z</time>
      </trkpt>
      <trkpt lat="43.77694" lon="3.27852">
        <ele>366.22507596652</ele>
        <time>2016-01-30T15:19:23Z</time>
      </trkpt>
      <trkpt lat="43.77655" lon="3.27888">
        <ele>365.67452346541</ele>
        <time>2016-01-30T15:20:36Z</time>
      </trkpt>
      <trkpt lat="43.7764" lon="3.2797">
        <ele>364.49164978867</ele>
        <time>2016-01-30T15:21:34Z</time>
      </trkpt>
      <trkpt lat="43.77689" lon="3.2804">
        <ele>362.26563224325</ele>
        <time>2016-01-30T15:22:29Z</time>
      </trkpt>
      <trkpt lat="43.7773" lon="3.28108">
        <ele>358.94640920134</ele>
        <time>2016-01-30T15:23:19Z</time>
      </trkpt>
      <trkpt lat="43.77733" lon="3.28116">
        <ele>358.94640920134</ele>
        <time>2016-01-30T15:23:22Z</time>
      </trkpt>
      <trkpt lat="43.77748" lon="3.28208">
        <ele>354.44974565504</ele>
        <time>2016-01-30T15:24:24Z</time>
      </trkpt>
      <trkpt lat="43.77741" lon="3.28247">
        <ele>350.13410268537</ele>
        <time>2016-01-30T15:24:58Z</time>
      </trkpt>
      <trkpt lat="43.77773" lon="3.28341">
        <ele>344.77876393821</ele>
        <time>2016-01-30T15:25:52Z</time>
      </trkpt>
      <trkpt lat="43.77777" lon="3.28353">
        <ele>339.95581833067</ele>
        <time>2016-01-30T15:26:00Z</time>
      </trkpt>
      <trkpt lat="43.77794" lon="3.28479">
        <ele>334.13127498593</ele>
        <time>2016-01-30T15:27:22Z</time>
      </trkpt>
      <trkpt lat="43.77791" lon="3.28494">
        <ele>328.92550846697</ele>
        <time>2016-01-30T15:27:29Z</time>
      </trkpt>
      <trkpt lat="43.77791" lon="3.28497">
        <ele>328.92550846697</ele>
        <time>2016-01-30T15:27:32Z</time>
      </trkpt>
      <trkpt lat="43.77792" lon="3.28507">
        <ele>324.33763739929</ele>
        <time>2016-01-30T15:27:37Z</time>
      </trkpt>
      <trkpt lat="43.77769" lon="3.28567">
        <ele>319.41404691195</ele>
        <time>2016-01-30T15:29:02Z</time>
      </trkpt>
      <trkpt lat="43.77771" lon="3.28576">
        <ele>319.41404691195</ele>
        <time>2016-01-30T15:29:07Z</time>
      </trkpt>
      <trkpt lat="43.77771" lon="3.28584">
        <ele>315.19053763883</ele>
        <time>2016-01-30T15:29:12Z</time>
      </trkpt>
      <trkpt lat="43.77773" lon="3.28591">
        <ele>315.19053763883</ele>
        <time>2016-01-30T15:29:17Z</time>
      </trkpt>
      <trkpt lat="43.77774" lon="3.28598">
        <ele>311.42869047846</ele>
        <time>2016-01-30T15:29:22Z</time>
      </trkpt>
      <trkpt lat="43.77773" lon="3.28606">
        <ele>311.42869047846</ele>
        <time>2016-01-30T15:29:27Z</time>
      </trkpt>
      <trkpt lat="43.77774" lon="3.28613">
        <ele>307.89287705569</ele>
        <time>2016-01-30T15:29:32Z</time>
      </trkpt>
      <trkpt lat="43.77775" lon="3.28613">
        <ele>307.89287705569</ele>
        <time>2016-01-30T15:29:37Z</time>
      </trkpt>
      <trkpt lat="43.77776" lon="3.2862">
        <ele>307.89287705569</ele>
        <time>2016-01-30T15:29:42Z</time>
      </trkpt>
      <trkpt lat="43.77776" lon="3.28647">
        <ele>304.81526598457</ele>
        <time>2016-01-30T15:30:08Z</time>
      </trkpt>
      <trkpt lat="43.77774" lon="3.28655">
        <ele>304.81526598457</ele>
        <time>2016-01-30T15:30:08Z</time>
      </trkpt>
      <trkpt lat="43.77782" lon="3.28682">
        <ele>302.15337766418</ele>
        <time>2016-01-30T15:30:25Z</time>
      </trkpt>
      <trkpt lat="43.77786" lon="3.28694">
        <ele>300.03097618219</ele>
        <time>2016-01-30T15:30:33Z</time>
      </trkpt>
      <trkpt lat="43.77785" lon="3.28746">
        <ele>298.36684865117</ele>
        <time>2016-01-30T15:31:02Z</time>
      </trkpt>
      <trkpt lat="43.77779" lon="3.2879">
        <ele>296.9521856764</ele>
        <time>2016-01-30T15:31:34Z</time>
      </trkpt>
      <trkpt lat="43.7778" lon="3.28793">
        <ele>296.9521856764</ele>
        <time>2016-01-30T15:31:37Z</time>
      </trkpt>
      <trkpt lat="43.77777" lon="3.28828">
        <ele>295.62490463667</ele>
        <time>2016-01-30T15:32:04Z</time>
      </trkpt>
      <trkpt lat="43.77778" lon="3.28835">
        <ele>295.62490463667</ele>
        <time>2016-01-30T15:32:08Z</time>
      </trkpt>
      <trkpt lat="43.77755" lon="3.28866">
        <ele>294.64946597628</ele>
        <time>2016-01-30T15:33:01Z</time>
      </trkpt>
      <trkpt lat="43.77724" lon="3.28892">
        <ele>293.88509735503</ele>
        <time>2016-01-30T15:33:31Z</time>
      </trkpt>
      <trkpt lat="43.77693" lon="3.29073">
        <ele>294.3620693614</ele>
        <time>2016-01-30T15:35:35Z</time>
      </trkpt>
      <trkpt lat="43.77693" lon="3.29075">
        <ele>294.3620693614</ele>
        <time>2016-01-30T15:35:37Z</time>
      </trkpt>
      <trkpt lat="43.77689" lon="3.29093">
        <ele>295.26523518993</ele>
        <time>2016-01-30T15:35:56Z</time>
      </trkpt>
      <trkpt lat="43.77684" lon="3.29102">
        <ele>295.26523518993</ele>
        <time>2016-01-30T15:35:56Z</time>
      </trkpt>
      <trkpt lat="43.77684" lon="3.29102">
        <ele>295.26523518993</ele>
        <time>2016-01-30T15:35:57Z</time>
      </trkpt>
      <trkpt lat="43.77648" lon="3.29087">
        <ele>295.90413716501</ele>
        <time>2016-01-30T15:36:50Z</time>
      </trkpt>
      <trkpt lat="43.7763" lon="3.2908">
        <ele>296.87097137118</ele>
        <time>2016-01-30T15:36:58Z</time>
      </trkpt>
      <trkpt lat="43.77624" lon="3.29075">
        <ele>296.87097137118</ele>
        <time>2016-01-30T15:37:04Z</time>
      </trkpt>
      <trkpt lat="43.776" lon="3.29048">
        <ele>298.25799642138</ele>
        <time>2016-01-30T15:37:32Z</time>
      </trkpt>
      <trkpt lat="43.77597" lon="3.29046">
        <ele>298.25799642138</ele>
        <time>2016-01-30T15:37:32Z</time>
      </trkpt>
      <trkpt lat="43.77573" lon="3.29059">
        <ele>300.17845971369</ele>
        <time>2016-01-30T15:38:01Z</time>
      </trkpt>
      <trkpt lat="43.77558" lon="3.29081">
        <ele>302.90992644057</ele>
        <time>2016-01-30T15:38:28Z</time>
      </trkpt>
      <trkpt lat="43.77551" lon="3.29092">
        <ele>305.86530845706</ele>
        <time>2016-01-30T15:38:28Z</time>
      </trkpt>
      <trkpt lat="43.77533" lon="3.29098">
        <ele>309.34353503181</ele>
        <time>2016-01-30T15:39:09Z</time>
      </trkpt>
    </trkseg>
  </trk>
</gpx>